SS924 / F-GTUI 7700 Squawk Report (15th of March, 2019)

Time Lat Lon Altitude Heading Speed Vertical Rate
2019-03-15 19:03:37 GMT 48.723072 2.359549 0 255 3
2019-03-15 19:03:28 GMT 48.723175 2.359543 0 255 5
2019-03-15 19:03:17 GMT 48.723370 2.359543 0 255 6
We lost coverage of the aircraft here for a total of 160 minutes
2019-03-15 16:23:37 GMT 48.723942 2.360740 0 75 19 0
2019-03-15 16:23:25 GMT 48.723713 2.359513 0 73 17 0
2019-03-15 16:23:22 GMT 48.723633 2.359097 0 75 16 0
2019-03-15 16:23:10 GMT 48.723427 2.357976 0 73 15 0
2019-03-15 16:23:02 GMT 48.723282 2.357200 0 73 14 0
2019-03-15 16:22:52 GMT 48.723106 2.356224 0 75 16 0
2019-03-15 16:22:42 GMT 48.722946 2.355339 0 73 12 0
2019-03-15 16:22:32 GMT 48.722771 2.354399 0 75 18 0
2019-03-15 16:22:21 GMT 48.722580 2.353275 0 78 15 0
2019-03-15 16:22:06 GMT 48.722679 2.351833 0 112 19 0
2019-03-15 16:21:58 GMT 48.722958 2.350881 0 115 17 0
2019-03-15 16:21:26 GMT 48.723793 2.347976 0 112 16 0
2019-03-15 16:21:02 GMT 48.724422 2.345816 0 112 12 0
2019-03-15 16:20:52 GMT 48.724628 2.345088 0 112 15 0
2019-03-15 16:18:28 GMT 48.722469 2.331704 0 61 20 0
2019-03-15 16:18:25 GMT 48.722351 2.331378 0 61 20 0
2019-03-15 16:18:10 GMT 48.721760 2.329716 0 61 16 0
2019-03-15 16:17:43 GMT 48.720989 2.327517 0 61 14 0
2019-03-15 16:17:18 GMT 48.720268 2.325510 0 61 19 0
2019-03-15 16:17:11 GMT 48.719990 2.324711 0 61 20 0
2019-03-15 16:16:59 GMT 48.719501 2.323309 0 61 19 0
2019-03-15 16:14:42 GMT 48.721378 2.320791 0 241 29 0
2019-03-15 16:14:31 GMT 48.722008 2.322605 0 241 30 0
2019-03-15 16:14:14 GMT 48.723095 2.325686 0 241 34 0
2019-03-15 16:14:11 GMT 48.723343 2.326391 0 241 34 0
2019-03-15 16:13:10 GMT 48.728714 2.341532 0 241 74 0
2019-03-15 16:13:01 GMT 48.730232 2.345816 0 241 110 0
2019-03-15 16:12:53 GMT 48.732216 2.351391 0 241 140 0
2019-03-15 16:12:45 GMT 48.734795 2.358736 200 242 146 -704
2019-03-15 16:12:33 GMT 48.738144 2.368276 350 242 143 -704
2019-03-15 16:12:23 GMT 48.741497 2.377673 475 243 142 -768
2019-03-15 16:12:18 GMT 48.743591 2.383892 625 242 146 -896
2019-03-15 16:12:13 GMT 48.744690 2.386921 650 242 148 -832
2019-03-15 16:12:02 GMT 48.748352 2.396851 800 242 153 -832
2019-03-15 16:11:55 GMT 48.750778 2.403752 900 242 146 -384
2019-03-15 16:11:52 GMT 48.751877 2.406873 925 243 142 -640
2019-03-15 16:11:45 GMT 48.753880 2.412655 975 243 136 -448
2019-03-15 16:11:41 GMT 48.755089 2.416053 1,150 242 142 -832
2019-03-15 16:11:38 GMT 48.755787 2.418076 1,050 243 137 -1216
2019-03-15 16:11:34 GMT 48.757004 2.421711 1,125 243 141 -832
2019-03-15 16:11:30 GMT 48.758194 2.425091 1,175 242 144 -832
2019-03-15 16:11:25 GMT 48.759888 2.429880 1,275 242 143 -512
2019-03-15 16:11:22 GMT 48.760910 2.432677 1,300 243 141 -960
2019-03-15 16:11:18 GMT 48.761932 2.435568 1,325 243 141 -960
2019-03-15 16:11:14 GMT 48.763374 2.439688 1,450 243 141 -960
2019-03-15 16:11:10 GMT 48.764725 2.443446 1,450 242 140 -896
2019-03-15 16:11:02 GMT 48.767056 2.450096 1,575 243 141 -448
2019-03-15 16:10:56 GMT 48.769009 2.455806 1,650 243 143 -896
2019-03-15 16:10:52 GMT 48.770267 2.459347 1,675 242 145 -960
2019-03-15 16:10:47 GMT 48.771881 2.463825 1,725 242 148 -832
2019-03-15 16:10:41 GMT 48.773712 2.468960 2,450 243 148 -768
2019-03-15 16:10:36 GMT 48.775314 2.473544 1,900 242 148 -704
2019-03-15 16:10:31 GMT 48.776871 2.478051 1,975 243 148 -832
2019-03-15 16:10:27 GMT 48.778015 2.481361 2,025 242 153 -896
2019-03-15 16:10:24 GMT 48.778877 2.483850 2,025 242 148 -896
2019-03-15 16:10:20 GMT 48.780228 2.487608 2,075 242 153 -896
2019-03-15 16:10:16 GMT 48.781631 2.491502 2,150 243 156 -1024
2019-03-15 16:10:11 GMT 48.783672 2.497510 2,250 242 157 -768
2019-03-15 16:10:06 GMT 48.785248 2.501855 2,300 242 158 -960
2019-03-15 16:10:00 GMT 48.787170 2.507348 2,450 242 159 -704
2019-03-15 16:09:57 GMT 48.788422 2.510882 2,450 242 159 -768
2019-03-15 16:09:49 GMT 48.790878 2.517911 2,525 242 161 -960
2019-03-15 16:09:44 GMT 48.794567 2.528518 2,600 243 159 -832
2019-03-15 16:09:39 GMT 48.794567 2.528518 2,700 243 158 -896
2019-03-15 16:09:34 GMT 48.796333 2.533505 2,825 242 159 -832
2019-03-15 16:09:28 GMT 48.798149 2.538637 2,850 242 160 -960
2019-03-15 16:09:22 GMT 48.800079 2.544110 2,900 242 159 -256
2019-03-15 16:09:16 GMT 48.802231 2.550166 2,925 243 157 0
2019-03-15 16:09:12 GMT 48.803558 2.554110 2,925 243 155 128
2019-03-15 16:09:07 GMT 48.805527 2.559885 2,925 243 154 -128
2019-03-15 16:09:02 GMT 48.807182 2.564440 2,925 243 156 192
2019-03-15 16:08:57 GMT 48.809181 2.570078 2,925 242 157 192
2019-03-15 16:08:49 GMT 48.811798 2.577702 2,900 244 152 256
2019-03-15 16:08:45 GMT 48.814163 2.584823 2,925 242 155 128
2019-03-15 16:08:40 GMT 48.814163 2.584823 2,900 242 155 128
2019-03-15 16:08:35 GMT 48.816257 2.590750 2,900 242 154 64
2019-03-15 16:08:30 GMT 48.817936 2.595448 2,900 240 155 -384
2019-03-15 16:08:26 GMT 48.819565 2.599712 2,925 241 156 -64
2019-03-15 16:08:23 GMT 48.820175 2.601295 2,925 241 156 0
2019-03-15 16:08:19 GMT 48.821938 2.606000 2,925 243 158 -64
2019-03-15 16:08:15 GMT 48.823055 2.609325 2,925 245 159 -256
2019-03-15 16:08:08 GMT 48.825150 2.617059 2,875 277 148 -256
2019-03-15 16:08:02 GMT 48.825760 2.623056 2,900 280 149 -128
2019-03-15 16:07:57 GMT 48.825432 2.628624 2,900 281 151 0
2019-03-15 16:07:53 GMT 48.825027 2.632071 2,925 281 151 0
2019-03-15 16:07:46 GMT 48.823563 2.642353 2,925 283 153 0
2019-03-15 16:07:40 GMT 48.823055 2.645537 2,925 283 152 64
2019-03-15 16:07:33 GMT 48.821983 2.652692 2,900 284 156 -192
2019-03-15 16:07:29 GMT 48.821320 2.657072 2,900 284 156 -192
2019-03-15 16:07:23 GMT 48.820221 2.664185 2,925 283 155 -192
2019-03-15 16:07:19 GMT 48.819565 2.668377 2,925 283 156 -128
2019-03-15 16:07:13 GMT 48.818573 2.674889 2,925 283 157 128
2019-03-15 16:07:06 GMT 48.817471 2.682399 2,900 283 154 -64
2019-03-15 16:07:02 GMT 48.816879 2.686369 2,925 283 156 -320
2019-03-15 16:06:59 GMT 48.816376 2.689890 2,925 283 157 -128
2019-03-15 16:06:51 GMT 48.815144 2.698372 2,925 283 154 128
2019-03-15 16:06:48 GMT 48.814724 2.701408 2,900 283 151 -320
2019-03-15 16:06:41 GMT 48.813675 2.708623 2,950 283 152 -128
2019-03-15 16:06:35 GMT 48.812721 2.715069 2,950 283 156 192
2019-03-15 16:06:32 GMT 48.812073 2.719468 2,950 283 155 128
2019-03-15 16:06:29 GMT 48.811932 2.720490 2,925 283 155 128
2019-03-15 16:06:26 GMT 48.811340 2.724680 2,925 282 157 -64
2019-03-15 16:06:20 GMT 48.810425 2.731652 2,925 281 162 64
2019-03-15 16:06:12 GMT 48.809181 2.741161 2,925 284 175 0
2019-03-15 16:06:09 GMT 48.808731 2.744117 2,900 284 175 -64
2019-03-15 16:06:03 GMT 48.807693 2.750702 2,900 287 181 0
2019-03-15 16:06:00 GMT 48.806992 2.754399 2,925 289 182 -128
2019-03-15 16:05:57 GMT 48.805939 2.758977 2,925 295 185 -64
2019-03-15 16:05:47 GMT 48.801174 2.769422 2,925 322 196 128
2019-03-15 16:05:39 GMT 48.795410 2.775949 2,925 329 200 -128
2019-03-15 16:05:34 GMT 48.791821 2.779396 2,925 329 200 -64
2019-03-15 16:05:28 GMT 48.786987 2.783837 2,925 329 204 -128
2019-03-15 16:05:25 GMT 48.784698 2.786020 2,925 329 202 -128
2019-03-15 16:05:22 GMT 48.778198 2.792077 2,950 329 204 -128
2019-03-15 16:05:17 GMT 48.778198 2.792077 2,950 329 207 256
2019-03-15 16:05:14 GMT 48.768860 2.800739 2,925 329 203 128
2019-03-15 16:05:06 GMT 48.768860 2.800739 2,925 329 206 -64
2019-03-15 16:05:02 GMT 48.766354 2.803104 2,900 328 211 -128
2019-03-15 16:04:54 GMT 48.758972 2.810035 2,900 328 211 -128
2019-03-15 16:04:51 GMT 48.757233 2.811655 2,875 328 214 128
2019-03-15 16:04:46 GMT 48.747894 2.820458 2,900 328 224 192
2019-03-15 16:04:41 GMT 48.747894 2.820458 2,875 328 226 64
2019-03-15 16:04:32 GMT 48.737000 2.830951 2,925 328 235 -448
2019-03-15 16:04:23 GMT 48.732697 2.835177 2,975 328 237 -768
2019-03-15 16:04:20 GMT 48.730278 2.837508 3,025 328 237 -1216
2019-03-15 16:04:17 GMT 48.727158 2.840616 3,100 328 237 -1408
2019-03-15 16:04:11 GMT 48.720154 2.847220 3,325 340 239 -1920
2019-03-15 16:04:06 GMT 48.715027 2.851445 3,425 337 238 -1856
2019-03-15 16:04:00 GMT 48.706375 2.856023 3,775 356 243 -2560
2019-03-15 16:03:50 GMT 48.694942 2.856518 4,125 8 252 -2624
2019-03-15 16:03:46 GMT 48.689312 2.854566 4,550 10 254 -2624
2019-03-15 16:03:41 GMT 48.689312 2.854566 4,875 32 270 -2752
2019-03-15 16:03:36 GMT 48.683121 2.850670 4,750 41 276 -2624
2019-03-15 16:03:32 GMT 48.679302 2.847194 5,125 55 287 -2368
2019-03-15 16:03:27 GMT 48.671062 2.835918 5,125 55 287 -2368
2019-03-15 16:03:20 GMT 48.668381 2.830811 5,500 60 290 -1984
2019-03-15 16:03:17 GMT 48.666550 2.826585 5,525 63 292 -1792
2019-03-15 16:03:14 GMT 48.663799 2.819150 5,525 63 292 -1792
2019-03-15 16:03:11 GMT 48.662033 2.813584 5,900 67 298 -1280
2019-03-15 16:03:07 GMT 48.660217 2.807151 5,675 67 297 -1216
2019-03-15 16:03:04 GMT 48.658356 2.800429 5,750 67 297 -1216
2019-03-15 16:03:01 GMT 48.656937 2.795457 5,850 67 298 -1280
2019-03-15 16:02:55 GMT 48.653961 2.784682 5,925 67 298 -1216
2019-03-15 16:02:52 GMT 48.652405 2.779118 5,975 67 299 -1152
2019-03-15 16:02:49 GMT 48.650528 2.772428 6,100 67 300 -1408
2019-03-15 16:02:46 GMT 48.648560 2.765245 6,175 67 300 -1856
2019-03-15 16:02:43 GMT 48.646637 2.758343 6,225 67 300 -1856
2019-03-15 16:02:40 GMT 48.645321 2.753665 6,300 67 301 -1920
2019-03-15 16:02:34 GMT 48.642342 2.742824 6,475 67 301 -1920
2019-03-15 16:02:29 GMT 48.639545 2.732705 6,650 67 303 -1920
2019-03-15 16:02:25 GMT 48.637032 2.723742 6,875 67 304 -1856
2019-03-15 16:02:22 GMT 48.635311 2.717454 6,900 67 309 -1728
2019-03-15 16:02:18 GMT 48.633869 2.712177 7,025 67 306 -1728
2019-03-15 16:02:14 GMT 48.631210 2.702425 7,100 67 307 -1792
2019-03-15 16:02:10 GMT 48.629307 2.695698 7,200 66 309 -1792
2019-03-15 16:02:07 GMT 48.627869 2.690524 7,250 66 310 -1856
2019-03-15 16:02:04 GMT 48.625534 2.682425 7,425 66 310 -2048
2019-03-15 16:01:59 GMT 48.622833 2.673075 7,575 66 311 -2048
2019-03-15 16:01:56 GMT 48.621670 2.669027 7,650 66 312 -2048
2019-03-15 16:01:52 GMT 48.619125 2.660029 7,800 67 313 -2048
2019-03-15 16:01:49 GMT 48.617432 2.653973 7,975 67 314 -2112
2019-03-15 16:01:45 GMT 48.615601 2.647071 8,025 68 315 -2112
2019-03-15 16:01:42 GMT 48.613586 2.639254 8,275 69 316 -2176
2019-03-15 16:01:39 GMT 48.611755 2.631515 8,275 72 319 -2176
2019-03-15 16:01:31 GMT 48.608917 2.617211 8,525 75 322 -2176
2019-03-15 16:01:27 GMT 48.607178 2.607211 8,675 75 323 -2176
2019-03-15 16:01:20 GMT 48.604797 2.593196 8,900 75 324 -2176
2019-03-15 16:01:14 GMT 48.602005 2.576505 9,175 75 325 -2176
2019-03-15 16:01:10 GMT 48.601044 2.570801 9,275 76 326 -2176
2019-03-15 16:01:06 GMT 48.599258 2.559744 9,500 76 327 -2176
2019-03-15 16:01:03 GMT 48.598068 2.552442 9,575 76 327 -2240
2019-03-15 16:00:59 GMT 48.597137 2.546877 9,675 76 327 -2304
2019-03-15 16:00:55 GMT 48.595276 2.535384 9,875 76 327 -2432
2019-03-15 16:00:49 GMT 48.593445 2.524038 10,075 76 328 -1728
2019-03-15 16:00:42 GMT 48.590881 2.508474 10,250 76 329 -1408
2019-03-15 16:00:39 GMT 48.589550 2.499968 10,325 76 329 -1344
2019-03-15 16:00:32 GMT 48.587082 2.483850 10,500 77 331 -1344
2019-03-15 16:00:28 GMT 48.583965 2.458263 10,775 81 332 -1792
2019-03-15 16:00:21 GMT 48.583965 2.458263 10,775 82 334 -1792
2019-03-15 16:00:17 GMT 48.583328 2.450655 10,875 83 335 -1216
2019-03-15 16:00:11 GMT 48.582367 2.437697 10,975 83 338 -64
2019-03-15 16:00:08 GMT 48.581684 2.428123 10,975 83 338 -64
2019-03-15 16:00:05 GMT 48.581264 2.422485 10,975 83 338 0
2019-03-15 16:00:02 GMT 48.579666 2.400442 11,000 83 338 0
2019-03-15 15:59:56 GMT 48.579666 2.400442 11,000 84 338 0
2019-03-15 15:59:49 GMT 48.578518 2.384322 11,000 84 337 -64
2019-03-15 15:59:45 GMT 48.578007 2.377239 11,000 84 337 -64
2019-03-15 15:59:42 GMT 48.577286 2.366497 11,000 84 337 -64
2019-03-15 15:59:38 GMT 48.576874 2.360652 11,000 84 338 0
2019-03-15 15:59:34 GMT 48.576324 2.352201 11,000 84 338 0
2019-03-15 15:59:31 GMT 48.575684 2.343046 11,000 84 339 -64
2019-03-15 15:59:28 GMT 48.575089 2.333820 11,000 84 339 -64
2019-03-15 15:59:24 GMT 48.574539 2.326073 11,000 84 341 0
2019-03-15 15:59:17 GMT 48.573486 2.310157 11,000 84 344 0
2019-03-15 15:59:13 GMT 48.572418 2.294552 11,000 84 350 0
2019-03-15 15:59:07 GMT 48.571907 2.286313 11,000 84 352 -64
2019-03-15 15:59:03 GMT 48.571198 2.275719 11,000 84 357 64
2019-03-15 15:59:00 GMT 48.570786 2.269733 11,000 84 359 64
2019-03-15 15:58:55 GMT 48.570007 2.257690 11,000 84 365 0
2019-03-15 15:58:51 GMT 48.569412 2.248042 11,000 84 367 0
2019-03-15 15:58:48 GMT 48.568832 2.238753 10,975 84 373 128
2019-03-15 15:58:42 GMT 48.567764 2.222055 10,975 84 381 -64
2019-03-15 15:58:38 GMT 48.567249 2.213890 10,975 84 385 -64
2019-03-15 15:58:35 GMT 48.566738 2.205867 10,975 84 385 0
2019-03-15 15:58:30 GMT 48.565948 2.193796 10,975 84 386 0
2019-03-15 15:58:27 GMT 48.565338 2.184378 10,975 84 385 0
2019-03-15 15:58:24 GMT 48.564877 2.176666 10,975 84 385 -64
2019-03-15 15:58:20 GMT 48.564102 2.164588 10,975 84 385 -64
2019-03-15 15:58:17 GMT 48.563713 2.158163 11,000 84 385 0
2019-03-15 15:58:13 GMT 48.562866 2.145081 11,000 84 386 0
2019-03-15 15:58:10 GMT 48.562225 2.134311 11,000 84 386 0
2019-03-15 15:58:07 GMT 48.561806 2.127372 11,000 84 386 0
2019-03-15 15:58:04 GMT 48.561432 2.120940 10,975 84 387 0
2019-03-15 15:57:59 GMT 48.560623 2.107262 10,975 84 387 0
2019-03-15 15:57:56 GMT 48.560081 2.097810 10,975 85 387 0
2019-03-15 15:57:52 GMT 48.559525 2.088414 11,000 85 386 -64
2019-03-15 15:57:48 GMT 48.558929 2.077402 11,000 85 385 0
2019-03-15 15:57:45 GMT 48.558361 2.067526 11,000 85 385 0
2019-03-15 15:57:40 GMT 48.557755 2.056539 11,000 85 385 0
2019-03-15 15:57:37 GMT 48.557198 2.047143 11,000 85 385 0
2019-03-15 15:57:34 GMT 48.556732 2.039161 11,000 84 384 0
2019-03-15 15:57:28 GMT 48.556000 2.026344 11,000 84 384 0
2019-03-15 15:57:25 GMT 48.555382 2.016714 11,000 84 384 0
2019-03-15 15:57:22 GMT 48.554916 2.008763 11,000 84 383 0
2019-03-15 15:57:18 GMT 48.554260 1.998596 11,000 84 383 0
2019-03-15 15:57:13 GMT 48.553333 1.985056 11,000 83 384 0
2019-03-15 15:57:10 GMT 48.552494 1.974142 11,000 83 384 0
2019-03-15 15:57:07 GMT 48.552261 1.970673 10,975 83 384 -64
2019-03-15 15:57:04 GMT 48.551472 1.960048 11,000 41 357 -192
2019-03-15 15:56:59 GMT 48.550598 1.948101 11,000 83 384 128
2019-03-15 15:56:56 GMT 48.550026 1.940605 10,975 81 383 0
2019-03-15 15:56:53 GMT 48.549282 1.932726 10,975 41 357 -192
2019-03-15 15:56:50 GMT 48.547794 1.922029 10,975 74 380 0
2019-03-15 15:56:46 GMT 48.546387 1.914649 11,000 69 377 0
2019-03-15 15:56:43 GMT 48.544647 1.907255 11,000 69 377 0
2019-03-15 15:56:39 GMT 48.541138 1.895575 11,000 62 372 0
2019-03-15 15:56:35 GMT 48.538651 1.888803 10,975 57 368 64
2019-03-15 15:56:32 GMT 48.535950 1.882535 10,975 54 365 64
2019-03-15 15:56:27 GMT 48.530987 1.872591 10,975 49 362 64
2019-03-15 15:56:24 GMT 48.527527 1.866760 10,975 44 359 -64
2019-03-15 15:56:21 GMT 48.523956 1.861532 10,975 40 356 -192
2019-03-15 15:56:17 GMT 48.516834 1.852859 11,000 35 351 0
2019-03-15 15:56:14 GMT 48.514984 1.850844 11,000 35 351 0
2019-03-15 15:56:10 GMT 48.508736 1.844258 10,975 34 351 0
2019-03-15 15:56:04 GMT 48.501007 1.836235 10,975 34 351 -64
2019-03-15 15:56:01 GMT 48.496719 1.831829 11,000 34 351 -64
2019-03-15 15:55:58 GMT 48.494293 1.829364 11,000 34 351 0
2019-03-15 15:55:53 GMT 48.486763 1.821634 11,000 34 351 0
2019-03-15 15:55:48 GMT 48.480743 1.815350 11,000 34 351 0
2019-03-15 15:55:43 GMT 48.472824 1.807181 11,000 34 351 0
2019-03-15 15:55:39 GMT 48.467194 1.801406 11,000 34 352 0
2019-03-15 15:55:31 GMT 48.451847 1.785640 11,000 34 352 0
2019-03-15 15:55:28 GMT 48.451847 1.785640 11,000 34 352 0
2019-03-15 15:55:24 GMT 48.447147 1.780797 10,975 34 351 0
2019-03-15 15:55:16 GMT 48.437714 1.771193 10,975 34 351 0
2019-03-15 15:55:10 GMT 48.423916 1.757017 10,975 34 351 -64
2019-03-15 15:55:07 GMT 48.423916 1.757017 10,975 34 351 0
2019-03-15 15:55:00 GMT 48.409439 1.742200 10,975 34 350 0
2019-03-15 15:54:56 GMT 48.409439 1.742200 10,975 34 350 0
2019-03-15 15:54:50 GMT 48.401505 1.734079 11,000 34 351 0
2019-03-15 15:54:45 GMT 48.395462 1.727952 10,975 33 350 0
2019-03-15 15:54:37 GMT 48.384567 1.716895 10,975 33 350 0
2019-03-15 15:54:33 GMT 48.379211 1.711473 10,975 33 350 -64
2019-03-15 15:54:28 GMT 48.371841 1.704008 10,975 33 350 0
2019-03-15 15:54:22 GMT 48.364422 1.696593 10,975 33 350 0
2019-03-15 15:54:18 GMT 48.358383 1.690486 11,000 33 349 0
2019-03-15 15:54:14 GMT 48.352459 1.684594 10,975 33 349 0
2019-03-15 15:54:06 GMT 48.340988 1.673161 10,975 33 350 0
2019-03-15 15:54:02 GMT 48.337238 1.669416 11,000 33 350 -64
2019-03-15 15:53:56 GMT 48.329544 1.661753 11,000 33 347 0
2019-03-15 15:53:52 GMT 48.323868 1.656119 11,000 34 348 0
2019-03-15 15:53:45 GMT 48.314518 1.646793 11,000 33 347 0
2019-03-15 15:53:42 GMT 48.309540 1.641806 11,000 34 348 0
2019-03-15 15:53:34 GMT 48.294872 1.626916 11,000 34 348 0
2019-03-15 15:53:30 GMT 48.294872 1.626916 11,000 34 348 -64
2019-03-15 15:53:24 GMT 48.286682 1.618460 11,000 34 348 -64
2019-03-15 15:53:19 GMT 48.281094 1.612677 11,000 34 348 64
2019-03-15 15:53:15 GMT 48.272575 1.603859 11,000 35 349 0
2019-03-15 15:53:09 GMT 48.266327 1.597032 10,975 43 356 0
2019-03-15 15:53:06 GMT 48.262474 1.592512 11,000 40 354 0
2019-03-15 15:53:01 GMT 48.256851 1.584989 11,000 43 356 0
2019-03-15 15:52:56 GMT 48.250717 1.575623 10,975 46 358 0
2019-03-15 15:52:53 GMT 48.246273 1.567865 11,000 50 360 -64
2019-03-15 15:52:50 GMT 48.244179 1.563889 10,975 54 364 128
2019-03-15 15:52:47 GMT 48.242294 1.560129 10,975 67 371 0
2019-03-15 15:52:42 GMT 48.237030 1.548368 10,975 60 367 -64
2019-03-15 15:52:37 GMT 48.232029 1.534183 10,975 65 370 0
2019-03-15 15:52:28 GMT 48.223892 1.504986 10,975 67 371 0
2019-03-15 15:52:24 GMT 48.221466 1.495972 10,975 67 371 0
2019-03-15 15:52:16 GMT 48.216888 1.478999 10,975 67 371 0
2019-03-15 15:52:13 GMT 48.211685 1.459736 10,975 67 371 0
2019-03-15 15:52:05 GMT 48.211685 1.459736 10,975 67 371 0
2019-03-15 15:51:53 GMT 48.204575 1.433575 10,975 67 370 -64
2019-03-15 15:51:44 GMT 48.197983 1.409349 10,975 67 370 0
2019-03-15 15:51:39 GMT 48.195328 1.399630 11,050 67 369 0
2019-03-15 15:51:32 GMT 48.190132 1.380447 10,975 67 371 -192
2019-03-15 15:51:27 GMT 48.187454 1.370615 11,000 67 373 -384
2019-03-15 15:51:21 GMT 48.177052 1.332526 11,250 67 373 -1856
2019-03-15 15:51:11 GMT 48.173141 1.318215 11,350 67 372 -1856
2019-03-15 15:51:06 GMT 48.173141 1.318215 11,350 67 372 -1856
2019-03-15 15:51:00 GMT 48.169373 1.304415 11,525 67 373 -1920
2019-03-15 15:50:54 GMT 48.162964 1.280964 11,675 67 373 -1920
2019-03-15 15:50:50 GMT 48.162964 1.280964 11,825 67 374 -1856
2019-03-15 15:50:47 GMT 48.161037 1.273764 12,050 67 375 -1856
2019-03-15 15:50:38 GMT 48.155682 1.254061 12,175 67 375 -1792
2019-03-15 15:50:34 GMT 48.152985 1.244202 12,300 67 376 -1856
2019-03-15 15:50:29 GMT 48.149120 1.229976 12,475 67 377 -1920
2019-03-15 15:50:25 GMT 48.147163 1.222933 12,600 67 381 -1984
2019-03-15 15:50:18 GMT 48.142227 1.204788 12,800 67 379 -1920
2019-03-15 15:50:14 GMT 48.139938 1.196342 12,900 67 379 -1984
2019-03-15 15:50:08 GMT 48.135105 1.178565 13,125 67 380 -1920
2019-03-15 15:50:02 GMT 48.131973 1.167160 13,225 67 381 -1984
2019-03-15 15:49:55 GMT 48.125290 1.142784 13,550 67 382 -2048
2019-03-15 15:49:45 GMT 48.120304 1.124408 14,300 67 384 -1856
2019-03-15 15:49:41 GMT 48.117928 1.115817 14,300 67 384 -1856
2019-03-15 15:49:37 GMT 48.114716 1.104057 14,125 67 385 -1856
2019-03-15 15:49:31 GMT 48.110550 1.088814 14,300 67 385 -1856
2019-03-15 15:49:28 GMT 48.107941 1.079475 14,500 67 387 -2112
2019-03-15 15:49:23 GMT 48.105194 1.069588 14,600 67 387 -2112
2019-03-15 15:49:11 GMT 48.097321 1.040955 14,950 67 388 -1984
2019-03-15 15:49:06 GMT 48.092880 1.025093 15,150 67 389 -1984
2019-03-15 15:49:03 GMT 48.091644 1.020630 15,500 67 391 -2048
2019-03-15 15:48:59 GMT 48.084320 0.994192 15,375 67 391 -1920
2019-03-15 15:48:52 GMT 48.084320 0.994192 15,625 67 391 -2176
2019-03-15 15:48:48 GMT 48.081665 0.984444 15,700 67 391 -2048
2019-03-15 15:48:42 GMT 48.077271 0.968445 15,925 67 393 -1088
2019-03-15 15:48:38 GMT 48.069981 0.942007 15,975 67 395 0
2019-03-15 15:48:31 GMT 48.069981 0.942007 16,000 67 395 0
2019-03-15 15:48:28 GMT 48.067429 0.932945 16,000 67 395 0
2019-03-15 15:48:21 GMT 48.063000 0.916725 15,975 67 395 0
2019-03-15 15:48:18 GMT 48.060764 0.908696 15,975 67 395 0
2019-03-15 15:48:12 GMT 48.055969 0.891301 15,975 67 394 0
2019-03-15 15:48:09 GMT 48.053871 0.883766 15,975 67 394 0
2019-03-15 15:48:01 GMT 48.048660 0.864899 15,975 67 395 0
2019-03-15 15:47:51 GMT 48.041519 0.839218 15,975 67 395 0
2019-03-15 15:47:44 GMT 48.037113 0.823411 15,975 67 396 0
2019-03-15 15:47:40 GMT 48.030533 0.799667 15,975 67 397 0
2019-03-15 15:47:36 GMT 48.030533 0.799667 15,975 67 398 0
2019-03-15 15:47:30 GMT 48.026875 0.786508 15,975 67 398 0
2019-03-15 15:47:25 GMT 48.023567 0.774607 15,975 67 398 -64
2019-03-15 15:47:19 GMT 48.019180 0.758812 15,975 67 398 -64
2019-03-15 15:47:13 GMT 48.014465 0.741852 15,975 67 398 0
2019-03-15 15:47:09 GMT 48.012177 0.733749 15,975 67 397 0
2019-03-15 15:47:03 GMT 48.008579 0.720802 15,975 67 397 64
2019-03-15 15:46:57 GMT 48.004028 0.704636 15,975 67 397 64
2019-03-15 15:46:50 GMT 47.999313 0.687744 15,975 67 396 64
2019-03-15 15:46:47 GMT 47.996979 0.679436 15,950 67 397 -192
2019-03-15 15:46:44 GMT 47.994518 0.670589 16,500 67 404 -2112
2019-03-15 15:46:38 GMT 47.990479 0.656158 16,000 67 401 -576
2019-03-15 15:46:29 GMT 47.983532 0.631573 16,125 67 403 -1216
2019-03-15 15:46:26 GMT 47.981598 0.624641 16,125 67 403 -1216
2019-03-15 15:46:17 GMT 47.975388 0.602699 16,450 67 402 -2048
2019-03-15 15:46:08 GMT 47.967773 0.575615 16,700 67 403 -2112
2019-03-15 15:45:58 GMT 47.961002 0.551500 17,050 67 405 -2048
2019-03-15 15:45:54 GMT 47.958572 0.542725 17,150 67 406 -1984
2019-03-15 15:45:49 GMT 47.954865 0.529541 17,325 67 408 -1856
2019-03-15 15:45:46 GMT 47.952763 0.522062 17,400 67 408 -1856
2019-03-15 15:45:41 GMT 47.948666 0.507484 17,500 67 420 -2304
2019-03-15 15:45:38 GMT 47.943924 0.490608 17,775 67 411 -1984
2019-03-15 15:45:30 GMT 47.940891 0.479877 17,925 67 412 -1984
2019-03-15 15:45:25 GMT 47.937103 0.466576 18,075 67 413 -1984
2019-03-15 15:45:19 GMT 47.932465 0.450299 18,275 67 415 -2048
2019-03-15 15:45:13 GMT 47.928833 0.437411 18,600 67 416 -2112
2019-03-15 15:45:08 GMT 47.924316 0.421565 18,650 67 417 -2112
2019-03-15 15:45:03 GMT 47.920074 0.406425 18,875 67 418 -2240
2019-03-15 15:44:55 GMT 47.912842 0.380608 19,300 67 420 -2304
2019-03-15 15:44:43 GMT 47.905151 0.353348 19,550 67 423 -2240
2019-03-15 15:44:40 GMT 47.903137 0.346140 19,700 67 423 -2240
2019-03-15 15:44:34 GMT 47.896992 0.324449 19,950 67 424 -2176
2019-03-15 15:44:23 GMT 47.891129 0.303744 20,275 67 425 -2112
2019-03-15 15:44:20 GMT 47.888809 0.295670 20,375 67 425 -2112
2019-03-15 15:44:13 GMT 47.883446 0.276771 20,625 66 427 -2240
2019-03-15 15:44:09 GMT 47.880138 0.265151 20,750 66 428 -2368
2019-03-15 15:44:01 GMT 47.873520 0.242180 21,325 67 427 -2624
2019-03-15 15:43:58 GMT 47.867477 0.221100 21,275 67 432 -2368
2019-03-15 15:43:53 GMT 47.867477 0.221100 21,450 66 428 -2432
2019-03-15 15:43:49 GMT 47.864410 0.210251 21,700 66 429 -2176
2019-03-15 15:43:46 GMT 47.859470 0.193176 21,950 67 432 -2368
2019-03-15 15:43:43 GMT 47.859470 0.193176 21,850 66 430 -2048
2019-03-15 15:43:38 GMT 47.851181 0.164314 23,450 66 439 -2240
2019-03-15 15:43:32 GMT 47.851181 0.164314 22,225 67 432 -2368
2019-03-15 15:43:27 GMT 47.846577 0.148104 22,450 67 433 -2304
2019-03-15 15:43:22 GMT 47.843319 0.136625 22,600 67 434 -2304
2019-03-15 15:43:17 GMT 47.839233 0.122360 22,875 66 434 -2176
2019-03-15 15:43:11 GMT 47.834751 0.106694 23,000 66 435 -2176
2019-03-15 15:43:05 GMT 47.830235 0.090989 23,250 66 436 -2112
2019-03-15 15:43:01 GMT 47.826511 0.077961 23,350 66 439 -2176
2019-03-15 15:42:55 GMT 47.822460 0.063805 23,725 67 440 -2432
2019-03-15 15:42:50 GMT 47.818413 0.049650 23,725 66 440 -2368
2019-03-15 15:42:45 GMT 47.814056 0.034332 23,950 66 442 -2432
2019-03-15 15:42:40 GMT 47.810532 0.022110 24,125 66 442 -2432
2019-03-15 15:42:35 GMT 47.805984 0.006197 24,375 66 443 -2432
2019-03-15 15:42:32 GMT 47.801559 -0.009201 24,500 66 443 -2432
2019-03-15 15:42:29 GMT 47.801559 -0.009201 24,525 66 443 -2496
2019-03-15 15:42:25 GMT 47.797989 -0.021492 24,850 66 444 -2496
2019-03-15 15:42:22 GMT 47.796066 -0.028221 24,850 66 444 -2432
2019-03-15 15:42:17 GMT 47.791672 -0.043396 25,075 66 445 -2432
2019-03-15 15:42:13 GMT 47.787174 -0.059157 25,225 66 445 -2368
2019-03-15 15:42:03 GMT 47.780319 -0.082809 25,600 66 448 -2240
2019-03-15 15:42:00 GMT 47.776936 -0.094440 25,875 66 450 -2176
2019-03-15 15:41:55 GMT 47.773087 -0.107735 25,925 66 450 -2240
2019-03-15 15:41:51 GMT 47.768230 -0.124512 26,125 66 451 -2304
2019-03-15 15:41:44 GMT 47.764549 -0.137329 26,275 66 453 -2304
2019-03-15 15:41:41 GMT 47.761990 -0.146203 26,375 66 453 -2304
2019-03-15 15:41:37 GMT 47.759010 -0.156485 26,575 66 454 -2240
2019-03-15 15:41:34 GMT 47.756195 -0.166237 26,700 66 455 -2240
2019-03-15 15:41:30 GMT 47.753494 -0.175713 26,875 66 456 -2240
2019-03-15 15:41:27 GMT 47.751068 -0.184021 26,950 66 456 -2240
2019-03-15 15:41:23 GMT 47.747093 -0.197824 27,125 66 457 -2176
2019-03-15 15:41:19 GMT 47.743698 -0.209702 27,225 66 457 -2112
2019-03-15 15:41:16 GMT 47.741322 -0.217755 27,350 66 459 -1792
2019-03-15 15:41:11 GMT 47.737225 -0.231910 27,625 66 461 -1472
2019-03-15 15:41:08 GMT 47.733871 -0.243530 27,600 66 461 -1408
2019-03-15 15:40:58 GMT 47.726006 -0.270503 27,800 66 462 -1152
2019-03-15 15:40:47 GMT 47.713062 -0.315012 27,975 66 462 -192
2019-03-15 15:40:40 GMT 47.710598 -0.323463 28,000 66 463 0
2019-03-15 15:40:37 GMT 47.708405 -0.331100 28,000 66 463 0
2019-03-15 15:40:34 GMT 47.704514 -0.344490 27,975 66 463 0
2019-03-15 15:40:27 GMT 47.699936 -0.360214 27,975 66 463 0
2019-03-15 15:40:23 GMT 47.696445 -0.372127 27,975 66 463 0
2019-03-15 15:40:19 GMT 47.690506 -0.392555 27,975 66 464 0
2019-03-15 15:40:16 GMT 47.690506 -0.392555 27,975 66 464 0
2019-03-15 15:40:13 GMT 47.687042 -0.404522 27,975 66 464 0
2019-03-15 15:40:08 GMT 47.683731 -0.415833 27,975 66 464 0
2019-03-15 15:40:05 GMT 47.681549 -0.423467 27,975 66 464 0
2019-03-15 15:40:01 GMT 47.676773 -0.439728 27,975 66 464 0
2019-03-15 15:39:54 GMT 47.672516 -0.454313 27,975 66 463 0
2019-03-15 15:39:51 GMT 47.669258 -0.465370 28,000 66 463 0
2019-03-15 15:39:44 GMT 47.663635 -0.484566 28,000 66 463 0
2019-03-15 15:39:40 GMT 47.660416 -0.495582 27,975 66 464 0
2019-03-15 15:39:35 GMT 47.654984 -0.514229 27,975 66 464 0
2019-03-15 15:39:31 GMT 47.650963 -0.527907 27,975 66 463 0
2019-03-15 15:39:24 GMT 47.646286 -0.543892 27,975 66 464 0
2019-03-15 15:39:18 GMT 47.641159 -0.561333 27,975 66 464 0
2019-03-15 15:39:13 GMT 47.636906 -0.575937 27,975 66 464 0
2019-03-15 15:39:07 GMT 47.632324 -0.591614 27,975 66 464 0
2019-03-15 15:39:03 GMT 47.628246 -0.605586 27,975 66 464 0
2019-03-15 15:38:57 GMT 47.623215 -0.622787 27,975 66 464 0
2019-03-15 15:38:53 GMT 47.619263 -0.636221 27,975 66 464 0
2019-03-15 15:38:46 GMT 47.613098 -0.657188 27,975 66 464 0
2019-03-15 15:38:41 GMT 47.609577 -0.669110 28,000 66 464 0
2019-03-15 15:38:36 GMT 47.604736 -0.685378 28,000 66 465 0
2019-03-15 15:38:31 GMT 47.601196 -0.697357 28,000 66 464 0
2019-03-15 15:38:26 GMT 47.596664 -0.712807 28,000 66 464 0
2019-03-15 15:38:23 GMT 47.594078 -0.721506 28,000 66 465 0
2019-03-15 15:38:20 GMT 47.591747 -0.729394 28,000 66 465 0
2019-03-15 15:38:13 GMT 47.586136 -0.748306 28,000 66 465 0
2019-03-15 15:38:10 GMT 47.582886 -0.759361 28,000 66 465 0
2019-03-15 15:38:06 GMT 47.578033 -0.775635 28,000 66 464 0
2019-03-15 15:38:00 GMT 47.573273 -0.791565 28,000 66 464 0
2019-03-15 15:37:54 GMT 47.566238 -0.815101 28,000 65 464 0
2019-03-15 15:37:51 GMT 47.564117 -0.822052 28,000 65 464 0
2019-03-15 15:37:44 GMT 47.560188 -0.835031 28,000 66 463 0
2019-03-15 15:37:41 GMT 47.557571 -0.843750 28,000 66 463 0
2019-03-15 15:37:38 GMT 47.554928 -0.852426 28,000 65 463 0
2019-03-15 15:37:33 GMT 47.547821 -0.875748 28,000 65 464 0
2019-03-15 15:37:25 GMT 47.543839 -0.888725 28,000 65 463 0
2019-03-15 15:37:19 GMT 47.538803 -0.905205 28,000 65 463 0
2019-03-15 15:37:15 GMT 47.535278 -0.916672 28,000 65 463 0
2019-03-15 15:37:10 GMT 47.530289 -0.932808 28,000 65 463 0
2019-03-15 15:37:05 GMT 47.526299 -0.945740 28,000 65 463 0
2019-03-15 15:36:59 GMT 47.520851 -0.963205 27,975 66 463 0
2019-03-15 15:36:54 GMT 47.516052 -0.978745 27,975 65 463 0
2019-03-15 15:36:49 GMT 47.511658 -0.992821 27,975 65 463 0
2019-03-15 15:36:44 GMT 47.506603 -1.009122 28,000 65 463 0
2019-03-15 15:36:40 GMT 47.502510 -1.022362 28,000 65 462 0
2019-03-15 15:36:34 GMT 47.498428 -1.035599 28,000 65 462 -64
2019-03-15 15:36:27 GMT 47.492340 -1.055443 28,000 66 462 0
2019-03-15 15:36:23 GMT 47.488823 -1.067223 28,000 66 463 0
2019-03-15 15:36:19 GMT 47.484558 -1.081741 28,000 67 463 64
2019-03-15 15:36:15 GMT 47.482121 -1.090534 27,975 68 464 0
2019-03-15 15:36:12 GMT 47.479980 -1.098495 27,975 69 464 -64
2019-03-15 15:36:08 GMT 47.476578 -1.112154 27,975 71 465 -64
2019-03-15 15:36:05 GMT 47.474533 -1.121155 27,975 72 466 0
2019-03-15 15:36:02 GMT 47.472855 -1.129056 27,975 72 465 0
2019-03-15 15:35:58 GMT 47.469734 -1.143916 27,975 72 465 0
2019-03-15 15:35:54 GMT 47.467575 -1.154251 27,975 72 465 0
2019-03-15 15:35:51 GMT 47.465836 -1.162422 27,975 72 465 0
2019-03-15 15:35:47 GMT 47.463272 -1.174507 27,975 72 465 0
2019-03-15 15:35:43 GMT 47.460938 -1.185768 27,975 72 465 -64
2019-03-15 15:35:40 GMT 47.458603 -1.196686 27,975 72 465 0
2019-03-15 15:35:34 GMT 47.454071 -1.218178 27,975 72 466 0
2019-03-15 15:35:31 GMT 47.453064 -1.223053 27,975 72 466 0
2019-03-15 15:35:28 GMT 47.450684 -1.234245 27,975 72 465 0
2019-03-15 15:35:23 GMT 47.447205 -1.250587 27,975 72 465 0
2019-03-15 15:35:19 GMT 47.444923 -1.261456 27,975 72 464 0
2019-03-15 15:35:15 GMT 47.442993 -1.270569 27,975 72 464 0
2019-03-15 15:35:12 GMT 47.440247 -1.283546 27,975 72 464 0
2019-03-15 15:35:08 GMT 47.436218 -1.302655 28,000 72 465 0
2019-03-15 15:35:05 GMT 47.436218 -1.302655 28,000 72 465 0
2019-03-15 15:34:58 GMT 47.432167 -1.322021 28,000 72 464 0
2019-03-15 15:34:55 GMT 47.429981 -1.332304 28,000 72 464 0
2019-03-15 15:34:51 GMT 47.426651 -1.348022 28,000 72 465 0
2019-03-15 15:34:45 GMT 47.423401 -1.363472 28,000 72 465 0
2019-03-15 15:34:40 GMT 47.420380 -1.377686 27,975 72 465 0
2019-03-15 15:34:36 GMT 47.417133 -1.392728 27,975 72 465 0
2019-03-15 15:34:33 GMT 47.415733 -1.399419 28,000 72 465 -64
2019-03-15 15:34:30 GMT 47.413315 -1.410898 27,975 72 465 -64
2019-03-15 15:34:25 GMT 47.410847 -1.422377 28,000 72 465 -64
2019-03-15 15:34:22 GMT 47.405914 -1.445688 28,000 72 465 0
2019-03-15 15:34:18 GMT 47.405914 -1.445688 28,000 72 465 0
2019-03-15 15:34:15 GMT 47.404190 -1.453787 28,000 72 465 0
2019-03-15 15:34:12 GMT 47.401630 -1.465900 28,000 72 465 0
2019-03-15 15:34:08 GMT 47.399368 -1.476425 28,000 72 464 0
2019-03-15 15:34:04 GMT 47.396667 -1.489128 28,000 72 464 0
2019-03-15 15:34:01 GMT 47.395477 -1.494553 28,000 72 464 0
2019-03-15 15:33:58 GMT 47.393158 -1.505409 28,000 72 464 0
2019-03-15 15:33:55 GMT 47.391220 -1.514465 27,975 71 463 -64
2019-03-15 15:33:50 GMT 47.387989 -1.529494 27,975 72 464 0
2019-03-15 15:33:43 GMT 47.383987 -1.547836 27,975 72 464 0
2019-03-15 15:33:40 GMT 47.381516 -1.559235 27,975 72 463 0
2019-03-15 15:33:34 GMT 47.377422 -1.577524 27,975 71 463 0
2019-03-15 15:33:31 GMT 47.375980 -1.584144 27,975 71 463 0
2019-03-15 15:33:27 GMT 47.370392 -1.609004 27,975 71 463 0
2019-03-15 15:33:23 GMT 47.370392 -1.609004 27,975 71 463 -64
2019-03-15 15:33:19 GMT 47.367645 -1.621239 27,975 71 463 0
2019-03-15 15:33:13 GMT 47.363132 -1.641329 27,975 71 463 0
2019-03-15 15:33:09 GMT 47.360432 -1.653302 28,000 71 463 0
2019-03-15 15:33:01 GMT 47.355377 -1.675758 27,975 71 463 0
2019-03-15 15:32:58 GMT 47.353310 -1.684711 27,975 71 463 0
2019-03-15 15:32:51 GMT 47.348793 -1.704782 28,000 71 464 0
2019-03-15 15:32:46 GMT 47.345490 -1.719501 28,000 71 463 0
2019-03-15 15:32:42 GMT 47.342468 -1.732956 28,000 71 464 0
2019-03-15 15:32:37 GMT 47.339390 -1.746685 28,000 71 463 0
2019-03-15 15:32:29 GMT 47.334038 -1.770348 28,000 71 463 0
2019-03-15 15:32:24 GMT 47.329971 -1.788300 28,000 71 463 -64
2019-03-15 15:32:19 GMT 47.327194 -1.800561 27,975 71 464 0
2019-03-15 15:32:16 GMT 47.322464 -1.821533 28,000 71 463 0
2019-03-15 15:32:08 GMT 47.319698 -1.833801 28,000 71 463 0
2019-03-15 15:32:05 GMT 47.317657 -1.842751 28,000 71 463 0
2019-03-15 15:31:59 GMT 47.313904 -1.859230 28,000 71 464 0
2019-03-15 15:31:56 GMT 47.310947 -1.872394 28,000 71 464 0
2019-03-15 15:31:52 GMT 47.308990 -1.881057 28,000 71 463 0
2019-03-15 15:31:48 GMT 47.304062 -1.902626 27,975 71 464 0
2019-03-15 15:31:45 GMT 47.304062 -1.902626 28,000 71 463 0
2019-03-15 15:31:38 GMT 47.299541 -1.922678 27,975 71 464 0
2019-03-15 15:31:35 GMT 47.297073 -1.933453 27,975 71 464 0
2019-03-15 15:31:32 GMT 47.293163 -1.950777 27,975 71 463 0
2019-03-15 15:31:29 GMT 47.291107 -1.959755 27,975 71 463 0
2019-03-15 15:31:26 GMT 47.291107 -1.959755 28,000 71 463 0
2019-03-15 15:31:22 GMT 47.288647 -1.970497 27,975 71 463 0
2019-03-15 15:31:16 GMT 47.284012 -1.990860 28,000 71 463 0
2019-03-15 15:31:12 GMT 47.281525 -2.001906 27,975 71 464 0
2019-03-15 15:31:04 GMT 47.275955 -2.026085 27,975 71 464 0
2019-03-15 15:30:59 GMT 47.272820 -2.039865 27,975 71 464 0
2019-03-15 15:30:54 GMT 47.268997 -2.056572 27,975 71 464 0
2019-03-15 15:30:50 GMT 47.266296 -2.068520 27,975 71 464 -64
2019-03-15 15:30:45 GMT 47.262314 -2.085892 27,975 71 464 0
2019-03-15 15:30:38 GMT 47.258575 -2.102332 27,975 71 465 0
2019-03-15 15:30:33 GMT 47.254852 -2.118439 27,975 71 465 -64
2019-03-15 15:30:27 GMT 47.250523 -2.137334 27,975 71 465 0
2019-03-15 15:30:22 GMT 47.247345 -2.151054 27,975 71 466 0
2019-03-15 15:30:16 GMT 47.243492 -2.167898 27,975 71 466 0
2019-03-15 15:30:12 GMT 47.237999 -2.191843 27,975 71 466 0
2019-03-15 15:30:05 GMT 47.235580 -2.202347 27,975 71 467 0
2019-03-15 15:30:00 GMT 47.230179 -2.225761 27,975 71 467 0
2019-03-15 15:29:54 GMT 47.227890 -2.235718 27,975 71 467 -64
2019-03-15 15:29:51 GMT 47.223221 -2.255836 27,975 71 468 0
2019-03-15 15:29:47 GMT 47.223221 -2.255836 28,000 71 468 0
2019-03-15 15:29:41 GMT 47.215210 -2.290443 27,975 71 468 0
2019-03-15 15:29:37 GMT 47.215210 -2.290443 27,975 71 468 0
2019-03-15 15:29:29 GMT 47.209763 -2.313995 27,975 71 470 0
2019-03-15 15:29:26 GMT 47.208206 -2.320656 27,975 71 470 0
2019-03-15 15:29:20 GMT 47.204201 -2.337834 27,975 71 473 0
2019-03-15 15:29:16 GMT 47.200562 -2.353546 28,000 71 471 -64
2019-03-15 15:29:10 GMT 47.197128 -2.368378 28,000 71 472 0
2019-03-15 15:29:07 GMT 47.195171 -2.376850 28,000 71 472 0
2019-03-15 15:29:04 GMT 47.193356 -2.384737 28,000 71 472 0
2019-03-15 15:28:58 GMT 47.188065 -2.407448 27,975 71 472 0
2019-03-15 15:28:54 GMT 47.186142 -2.415619 28,000 71 472 0
2019-03-15 15:28:49 GMT 47.182510 -2.431359 27,975 71 473 0
2019-03-15 15:28:46 GMT 47.180599 -2.439528 27,975 71 473 0
2019-03-15 15:28:43 GMT 47.178413 -2.448965 28,000 71 473 0
2019-03-15 15:28:39 GMT 47.175152 -2.462909 27,975 71 473 0
2019-03-15 15:28:36 GMT 47.173386 -2.470515 27,975 71 473 0
2019-03-15 15:28:33 GMT 47.171402 -2.478996 27,975 71 473 0
2019-03-15 15:28:29 GMT 47.168076 -2.493263 27,975 71 473 0
2019-03-15 15:28:25 GMT 47.165379 -2.504812 27,975 71 473 0
2019-03-15 15:28:21 GMT 47.162613 -2.516624 27,975 71 474 -64
2019-03-15 15:28:18 GMT 47.160553 -2.525482 28,000 71 474 -64
2019-03-15 15:28:14 GMT 47.157650 -2.537912 28,000 71 474 0
2019-03-15 15:28:11 GMT 47.155460 -2.547349 28,000 71 474 0
2019-03-15 15:28:08 GMT 47.152763 -2.558899 28,000 71 474 0
2019-03-15 15:28:05 GMT 47.150665 -2.567702 28,000 70 476 0
2019-03-15 15:28:02 GMT 47.148621 -2.576576 27,975 71 474 0
2019-03-15 15:27:58 GMT 47.143684 -2.597562 28,000 70 475 -64
2019-03-15 15:27:51 GMT 47.141171 -2.608197 28,000 70 475 0
2019-03-15 15:27:45 GMT 47.137482 -2.624016 28,000 70 475 0
2019-03-15 15:27:42 GMT 47.135010 -2.634384 28,000 70 475 0
2019-03-15 15:27:39 GMT 47.132744 -2.644113 28,000 70 476 0
2019-03-15 15:27:34 GMT 47.127483 -2.666368 28,000 70 476 0
2019-03-15 15:27:30 GMT 47.125900 -2.673058 28,000 70 476 0
2019-03-15 15:27:26 GMT 47.123432 -2.683411 27,975 70 476 0
2019-03-15 15:27:19 GMT 47.118118 -2.705933 28,000 70 476 0
2019-03-15 15:27:16 GMT 47.115921 -2.715408 28,000 70 475 0
2019-03-15 15:27:09 GMT 47.111252 -2.735184 27,975 70 475 0
2019-03-15 15:27:06 GMT 47.108231 -2.747955 27,975 70 475 0
2019-03-15 15:26:58 GMT 47.103104 -2.769516 27,975 70 475 0
2019-03-15 15:26:54 GMT 47.100723 -2.779541 27,975 70 475 0
2019-03-15 15:26:51 GMT 47.098576 -2.788696 27,975 70 475 0
2019-03-15 15:26:48 GMT 47.096016 -2.799612 27,975 70 475 0
2019-03-15 15:26:42 GMT 47.091614 -2.818130 27,975 70 475 0
2019-03-15 15:26:35 GMT 47.085846 -2.842438 28,000 70 475 -64
2019-03-15 15:26:29 GMT 47.082748 -2.855530 28,000 70 475 -64
2019-03-15 15:26:26 GMT 47.080353 -2.865509 28,000 70 475 -64
2019-03-15 15:26:23 GMT 47.078232 -2.874615 28,000 70 475 0
2019-03-15 15:26:19 GMT 47.074951 -2.888306 28,000 70 475 0
2019-03-15 15:26:16 GMT 47.070690 -2.906165 28,000 70 475 0
2019-03-15 15:26:08 GMT 47.062542 -2.940463 27,975 70 475 -64
2019-03-15 15:26:03 GMT 47.062542 -2.940463 28,000 70 475 0
2019-03-15 15:25:59 GMT 47.060669 -2.948387 27,975 70 475 0
2019-03-15 15:25:52 GMT 47.055817 -2.968712 27,975 70 475 0
2019-03-15 15:25:49 GMT 47.053574 -2.978119 27,975 70 475 0
2019-03-15 15:25:40 GMT 47.047119 -3.005173 28,000 70 475 0
2019-03-15 15:25:37 GMT 47.045013 -3.013962 27,975 70 475 0
2019-03-15 15:25:32 GMT 47.040390 -3.033394 28,000 70 475 0
2019-03-15 15:25:27 GMT 47.037460 -3.045547 28,000 70 475 0
2019-03-15 15:25:22 GMT 47.033543 -3.061946 27,975 70 475 0
2019-03-15 15:25:19 GMT 47.032150 -3.067657 28,000 70 475 0
2019-03-15 15:25:16 GMT 47.029404 -3.079193 27,975 70 475 0
2019-03-15 15:25:10 GMT 47.025284 -3.096222 27,975 70 475 0
2019-03-15 15:25:05 GMT 47.021576 -3.111671 27,975 70 475 0
2019-03-15 15:25:01 GMT 47.018551 -3.124131 27,975 70 475 0
2019-03-15 15:24:58 GMT 47.016830 -3.131385 27,975 70 475 0
2019-03-15 15:24:52 GMT 47.011105 -3.155119 27,975 70 476 0
2019-03-15 15:24:49 GMT 47.009857 -3.160286 27,975 70 476 0
2019-03-15 15:24:43 GMT 47.005829 -3.176971 27,975 70 476 -64
2019-03-15 15:24:40 GMT 47.003281 -3.187585 27,975 70 476 0
2019-03-15 15:24:31 GMT 46.995071 -3.221603 28,000 70 477 0
2019-03-15 15:24:27 GMT 46.993607 -3.227715 27,975 70 476 -64
2019-03-15 15:24:22 GMT 46.989830 -3.243502 27,975 70 477 -64
2019-03-15 15:24:19 GMT 46.987473 -3.253189 28,000 70 477 -64
2019-03-15 15:24:16 GMT 46.985779 -3.260193 28,000 70 477 -64
2019-03-15 15:24:08 GMT 46.980007 -3.284208 28,000 70 477 0
2019-03-15 15:24:05 GMT 46.977726 -3.293574 27,975 70 477 0
2019-03-15 15:23:58 GMT 46.972275 -3.316086 27,975 70 477 0
2019-03-15 15:23:55 GMT 46.970093 -3.325195 27,975 70 477 0
2019-03-15 15:23:48 GMT 46.964539 -3.347946 28,000 70 476 0
2019-03-15 15:23:43 GMT 46.961246 -3.361605 28,000 70 476 0
2019-03-15 15:23:36 GMT 46.955429 -3.385506 27,975 70 476 0
2019-03-15 15:23:33 GMT 46.954029 -3.391254 27,975 70 476 0
2019-03-15 15:23:28 GMT 46.950630 -3.405198 27,975 70 476 0
2019-03-15 15:23:25 GMT 46.948425 -3.414345 27,975 70 476 0
2019-03-15 15:23:22 GMT 46.946209 -3.423438 27,975 70 476 0
2019-03-15 15:23:15 GMT 46.940506 -3.446754 28,000 70 476 0
2019-03-15 15:23:11 GMT 46.937988 -3.457054 28,000 70 476 0
2019-03-15 15:23:05 GMT 46.932770 -3.478546 28,000 70 476 0
2019-03-15 15:23:00 GMT 46.930023 -3.489738 28,000 70 476 0
2019-03-15 15:22:57 GMT 46.926544 -3.504021 28,000 70 476 0
2019-03-15 15:22:54 GMT 46.924896 -3.510681 27,975 70 476 0
2019-03-15 15:22:49 GMT 46.921829 -3.523384 28,000 70 476 0
2019-03-15 15:22:46 GMT 46.919128 -3.534302 27,975 70 476 0
2019-03-15 15:22:43 GMT 46.917114 -3.542473 28,000 70 476 0
2019-03-15 15:22:39 GMT 46.913864 -3.555794 28,000 70 476 0
2019-03-15 15:22:35 GMT 46.911480 -3.565486 28,000 70 476 0
2019-03-15 15:22:32 GMT 46.908737 -3.576668 28,000 70 476 0
2019-03-15 15:22:28 GMT 46.905807 -3.588753 28,000 70 476 0
2019-03-15 15:22:22 GMT 46.901184 -3.607498 28,000 70 476 0
2019-03-15 15:22:18 GMT 46.898445 -3.618657 28,000 70 476 0
2019-03-15 15:22:15 GMT 46.896057 -3.628372 28,000 70 476 0
2019-03-15 15:22:11 GMT 46.892628 -3.642249 28,000 70 476 0
2019-03-15 15:22:05 GMT 46.888779 -3.657967 28,000 70 476 0
2019-03-15 15:22:00 GMT 46.884613 -3.674858 27,975 70 476 0
2019-03-15 15:21:56 GMT 46.882507 -3.683304 27,975 70 475 0
2019-03-15 15:21:49 GMT 46.876801 -3.706477 27,975 70 474 -64
2019-03-15 15:21:44 GMT 46.873310 -3.720703 28,000 70 475 0
2019-03-15 15:21:38 GMT 46.869072 -3.737887 27,975 70 474 -64
2019-03-15 15:21:34 GMT 46.865582 -3.752037 27,975 70 475 -64
2019-03-15 15:21:27 GMT 46.860672 -3.771928 28,000 70 475 -64
2019-03-15 15:21:23 GMT 46.857109 -3.786369 28,000 70 475 0
2019-03-15 15:21:15 GMT 46.851894 -3.807449 28,000 70 475 0
2019-03-15 15:21:11 GMT 46.848770 -3.820094 28,000 70 475 0
2019-03-15 15:21:03 GMT 46.842537 -3.845078 28,000 70 475 -64
2019-03-15 15:20:55 GMT 46.836502 -3.869398 28,000 70 475 0
2019-03-15 15:20:50 GMT 46.833160 -3.882997 28,000 70 475 0
2019-03-15 15:20:45 GMT 46.828430 -3.901932 28,000 70 475 0
2019-03-15 15:20:41 GMT 46.826103 -3.911270 28,000 69 475 0
2019-03-15 15:20:33 GMT 46.819962 -3.935852 28,000 70 475 0
2019-03-15 15:20:30 GMT 46.818375 -3.942216 28,000 70 475 0
2019-03-15 15:20:20 GMT 46.810741 -3.972862 27,975 70 474 0
2019-03-15 15:20:08 GMT 46.801804 -4.008636 28,000 70 474 0
2019-03-15 15:19:58 GMT 46.793610 -4.041321 27,975 70 474 0
2019-03-15 15:19:48 GMT 46.785645 -4.073181 28,000 69 474 0
2019-03-15 15:19:38 GMT 46.778996 -4.099617 27,975 69 474 0
2019-03-15 15:19:35 GMT 46.777039 -4.107376 28,000 69 474 0
2019-03-15 15:19:25 GMT 46.769127 -4.138962 28,000 69 475 0
2019-03-15 15:19:16 GMT 46.762608 -4.164780 27,975 69 476 0
2019-03-15 15:19:13 GMT 46.760185 -4.174393 27,975 69 476 0
2019-03-15 15:19:05 GMT 46.753189 -4.202070 28,000 69 476 -64
2019-03-15 15:18:54 GMT 46.745407 -4.232751 28,000 69 477 0
2019-03-15 15:18:46 GMT 46.739937 -4.254456 28,000 69 477 0
2019-03-15 15:18:43 GMT 46.736725 -4.267090 28,000 69 477 0
2019-03-15 15:18:37 GMT 46.732304 -4.284531 28,000 69 478 0
2019-03-15 15:18:33 GMT 46.729275 -4.296616 28,000 69 478 0
2019-03-15 15:18:22 GMT 46.721085 -4.328888 28,000 69 478 -64
2019-03-15 15:18:10 GMT 46.712379 -4.363289 28,000 69 478 0
2019-03-15 15:18:05 GMT 46.707184 -4.383746 28,000 69 478 0
2019-03-15 15:18:01 GMT 46.704437 -4.394665 28,000 69 478 0
2019-03-15 15:17:56 GMT 46.701626 -4.405792 28,000 69 478 0
2019-03-15 15:17:48 GMT 46.695374 -4.430237 27,975 69 479 0
2019-03-15 15:17:40 GMT 46.686588 -4.464638 28,000 69 479 0
2019-03-15 15:17:34 GMT 46.684433 -4.473110 28,000 69 479 0
2019-03-15 15:17:28 GMT 46.676624 -4.503639 28,000 69 479 0
2019-03-15 15:17:16 GMT 46.670853 -4.526299 28,000 69 480 0
2019-03-15 15:17:08 GMT 46.663544 -4.554657 28,000 69 480 0
2019-03-15 15:17:05 GMT 46.662243 -4.559807 28,000 69 480 0
2019-03-15 15:16:57 GMT 46.655399 -4.586380 27,975 69 480 0
2019-03-15 15:16:54 GMT 46.653862 -4.592422 28,000 69 481 0
2019-03-15 15:16:46 GMT 46.646786 -4.619957 27,975 69 481 0
2019-03-15 15:16:41 GMT 46.643692 -4.632077 28,000 69 481 0
2019-03-15 15:16:36 GMT 46.639103 -4.649895 28,000 69 481 0
2019-03-15 15:16:32 GMT 46.635818 -4.662624 28,000 69 481 0
2019-03-15 15:16:24 GMT 46.630371 -4.683793 28,000 69 481 0
2019-03-15 15:16:20 GMT 46.626766 -4.697685 28,000 69 481 0
2019-03-15 15:16:14 GMT 46.622269 -4.715278 27,975 69 481 0
2019-03-15 15:16:11 GMT 46.619659 -4.725260 28,000 69 482 0
2019-03-15 15:16:04 GMT 46.614105 -4.746712 28,000 69 482 0
2019-03-15 15:15:58 GMT 46.609909 -4.763109 28,000 69 482 0
2019-03-15 15:15:54 GMT 46.606384 -4.776708 28,000 69 482 0
2019-03-15 15:15:49 GMT 46.602608 -4.791275 28,000 69 482 0
2019-03-15 15:15:42 GMT 46.596786 -4.813660 28,000 69 482 0
2019-03-15 15:15:37 GMT 46.593761 -4.825470 27,975 69 482 0
2019-03-15 15:15:31 GMT 46.588642 -4.845177 28,000 69 482 -64
2019-03-15 15:15:28 GMT 46.586060 -4.855220 28,000 69 482 0
2019-03-15 15:15:21 GMT 46.580727 -4.875801 28,000 69 482 0
2019-03-15 15:15:13 GMT 46.574799 -4.898563 28,000 69 482 0
2019-03-15 15:15:02 GMT 46.565918 -4.932794 28,000 69 483 -64
2019-03-15 15:14:53 GMT 46.558430 -4.961563 28,000 69 483 0
2019-03-15 15:14:43 GMT 46.550049 -4.993767 28,000 69 484 0
2019-03-15 15:14:31 GMT 46.541336 -5.027116 28,000 69 484 0
2019-03-15 15:14:26 GMT 46.537064 -5.043480 28,000 69 484 0
2019-03-15 15:14:20 GMT 46.532822 -5.059874 28,000 69 484 0
2019-03-15 15:14:15 GMT 46.528610 -5.075952 28,000 69 484 0
2019-03-15 15:14:11 GMT 46.524857 -5.090220 28,000 69 484 0
2019-03-15 15:14:00 GMT 46.516487 -5.122307 28,000 69 484 0
2019-03-15 15:13:49 GMT 46.507317 -5.157120 28,000 69 483 0
2019-03-15 15:13:38 GMT 46.499542 -5.186820 28,000 69 483 0
2019-03-15 15:13:29 GMT 46.491394 -5.217682 28,000 69 483 0
2019-03-15 15:13:18 GMT 46.482925 -5.249723 28,000 69 483 0
2019-03-15 15:13:06 GMT 46.472492 -5.289299 28,000 69 483 0
We lost coverage of the aircraft here for a total of 55 minutes
2019-03-15 14:18:22 GMT 46.601116 -5.691330 32,000 251 451 0
2019-03-15 14:18:12 GMT 46.607483 -5.665663 32,000 251 451 0
2019-03-15 14:18:01 GMT 46.615631 -5.632570 32,000 251 451 0
2019-03-15 14:17:50 GMT 46.625793 -5.591237 32,000 251 451 0
2019-03-15 14:17:39 GMT 46.630554 -5.571877 31,975 251 451 0
2019-03-15 14:17:25 GMT 46.641106 -5.529144 32,000 251 451 0
2019-03-15 14:17:17 GMT 46.646622 -5.506629 32,000 251 451 0
2019-03-15 14:17:05 GMT 46.654770 -5.473335 32,000 251 450 0
2019-03-15 14:16:52 GMT 46.663925 -5.436022 31,975 251 450 0
2019-03-15 14:16:43 GMT 46.670242 -5.410097 31,975 251 449 0
2019-03-15 14:16:33 GMT 46.677338 -5.381023 31,975 251 450 0
2019-03-15 14:16:21 GMT 46.685394 -5.347997 31,975 251 450 0
2019-03-15 14:16:14 GMT 46.689468 -5.331183 31,975 251 450 0
2019-03-15 14:16:09 GMT 46.693478 -5.314636 31,975 251 450 0
2019-03-15 14:16:04 GMT 46.696270 -5.303238 31,975 251 450 0
2019-03-15 14:15:57 GMT 46.701763 -5.280647 31,975 251 450 0
2019-03-15 14:15:54 GMT 46.703625 -5.272957 31,975 251 450 0
2019-03-15 14:15:47 GMT 46.708607 -5.252426 32,000 251 451 0
2019-03-15 14:15:40 GMT 46.712891 -5.234642 32,000 251 451 0
2019-03-15 14:15:29 GMT 46.720688 -5.202629 31,975 251 451 0
2019-03-15 14:15:19 GMT 46.727459 -5.174561 31,975 251 452 64
2019-03-15 14:15:12 GMT 46.732544 -5.153593 31,975 251 454 0
2019-03-15 14:14:43 GMT 46.752785 -5.069641 31,975 251 454 0
2019-03-15 14:14:34 GMT 46.758911 -5.044265 32,000 251 454 0
2019-03-15 14:14:17 GMT 46.770847 -4.994591 31,975 251 456 0
2019-03-15 14:14:07 GMT 46.779739 -4.957447 31,975 251 457 0
2019-03-15 14:13:57 GMT 46.785465 -4.933685 31,975 251 460 0
2019-03-15 14:13:53 GMT 46.789001 -4.918785 31,975 251 458 0
2019-03-15 14:13:41 GMT 46.796593 -4.887062 31,975 251 459 0
2019-03-15 14:13:26 GMT 46.805878 -4.848186 31,975 251 459 0
2019-03-15 14:13:18 GMT 46.811954 -4.822723 31,975 251 461 0
2019-03-15 14:13:09 GMT 46.819199 -4.792183 32,000 251 461 0
2019-03-15 14:13:02 GMT 46.823685 -4.773354 32,000 252 464 0
2019-03-15 14:12:46 GMT 46.833801 -4.730619 32,000 251 463 0
2019-03-15 14:12:39 GMT 46.838654 -4.710254 32,000 252 464 0
2019-03-15 14:12:25 GMT 46.852386 -4.651973 32,000 252 465 0
2019-03-15 14:11:59 GMT 46.866943 -4.590409 32,000 252 465 0
2019-03-15 14:11:54 GMT 46.870281 -4.576158 32,000 252 467 0
2019-03-15 14:11:48 GMT 46.874985 -4.555946 31,975 252 466 0
2019-03-15 14:11:39 GMT 46.881638 -4.527740 31,975 252 466 0
2019-03-15 14:11:27 GMT 46.909378 -4.409088 32,000 252 467 0
2019-03-15 14:10:59 GMT 46.909378 -4.409088 31,975 252 467 0
2019-03-15 14:10:49 GMT 46.918045 -4.371854 31,975 252 466 0
2019-03-15 14:10:28 GMT 46.930614 -4.317838 32,000 252 468 0
2019-03-15 14:10:25 GMT 46.933319 -4.306229 32,000 252 468 0
2019-03-15 14:10:12 GMT 46.942440 -4.267062 31,975 252 467 0
2019-03-15 14:10:07 GMT 46.944992 -4.255966 32,000 252 468 0
2019-03-15 14:10:02 GMT 46.948677 -4.240089 32,000 252 468 0
2019-03-15 14:09:52 GMT 46.956684 -4.205369 31,975 252 468 0
2019-03-15 14:09:39 GMT 46.964767 -4.170616 31,975 252 468 0
2019-03-15 14:09:28 GMT 46.972698 -4.136071 31,975 252 468 0
2019-03-15 14:09:16 GMT 46.981979 -4.095566 31,975 252 469 0
2019-03-15 14:09:08 GMT 46.985504 -4.080254 31,975 252 469 0
2019-03-15 14:09:03 GMT 46.995228 -4.037969 31,975 252 469 0
2019-03-15 14:08:51 GMT 46.997543 -4.028000 31,975 252 469 0
2019-03-15 14:08:47 GMT 47.000198 -4.016327 31,975 252 469 0
2019-03-15 14:08:37 GMT 47.006882 -3.986870 31,975 252 469 0
2019-03-15 14:08:27 GMT 47.015259 -3.950752 31,975 252 470 0
2019-03-15 14:08:19 GMT 47.019623 -3.931767 31,975 252 470 0
2019-03-15 14:08:15 GMT 47.022972 -3.916978 32,000 252 470 0
2019-03-15 14:08:04 GMT 47.031876 -3.878105 31,975 252 471 0
2019-03-15 14:07:55 GMT 47.035870 -3.860568 32,000 252 471 0
2019-03-15 14:07:51 GMT 47.039520 -3.844597 32,000 252 471 0
2019-03-15 14:07:45 GMT 47.042618 -3.830989 32,000 252 471 0
2019-03-15 14:07:38 GMT 47.047760 -3.808342 32,000 252 471 0
2019-03-15 14:07:28 GMT 47.058960 -3.759014 32,000 252 472 0
2019-03-15 14:07:22 GMT 47.058960 -3.759014 32,000 252 472 0
2019-03-15 14:07:16 GMT 47.062820 -3.742081 32,000 252 472 0
2019-03-15 14:07:10 GMT 47.066967 -3.723591 32,000 252 471 0
2019-03-15 14:07:02 GMT 47.072388 -3.699715 32,000 252 472 0
2019-03-15 14:06:55 GMT 47.076927 -3.679716 32,000 252 471 0
2019-03-15 14:06:52 GMT 47.079163 -3.670067 32,000 252 471 0
2019-03-15 14:06:48 GMT 47.082233 -3.656405 32,000 252 471 0
2019-03-15 14:06:44 GMT 47.084610 -3.645813 32,000 252 471 0
2019-03-15 14:06:41 GMT 47.087074 -3.634855 31,975 252 471 0
2019-03-15 14:06:32 GMT 47.093361 -3.607319 32,000 252 472 0
2019-03-15 14:06:28 GMT 47.096786 -3.592117 32,000 252 472 0
2019-03-15 14:06:21 GMT 47.100346 -3.576402 32,000 252 471 0
2019-03-15 14:06:10 GMT 47.108212 -3.541471 31,975 252 471 0
2019-03-15 14:06:07 GMT 47.110062 -3.533340 32,000 252 471 0
2019-03-15 14:05:58 GMT 47.116333 -3.505394 32,000 252 471 0
2019-03-15 14:05:50 GMT 47.122650 -3.477173 32,000 252 471 0
2019-03-15 14:05:46 GMT 47.124084 -3.470835 32,000 252 471 0
2019-03-15 14:05:39 GMT 47.128880 -3.449284 32,000 252 471 0
2019-03-15 14:05:29 GMT 47.136002 -3.417452 32,000 252 471 0
2019-03-15 14:05:19 GMT 47.142883 -3.386536 32,000 252 471 0
2019-03-15 14:05:09 GMT 47.149567 -3.356529 31,975 253 469 0
2019-03-15 14:04:58 GMT 47.156811 -3.323857 31,975 253 469 0
2019-03-15 14:04:46 GMT 47.165051 -3.286250 31,975 253 469 0
2019-03-15 14:04:39 GMT 47.169567 -3.265686 31,975 253 469 0
2019-03-15 14:04:35 GMT 47.172733 -3.251108 31,975 253 469 0
2019-03-15 14:04:29 GMT 47.175854 -3.236882 31,975 253 469 0
2019-03-15 14:04:25 GMT 47.178635 -3.224144 31,975 253 469 0
2019-03-15 14:04:21 GMT 47.181206 -3.212374 31,975 253 469 0
2019-03-15 14:04:18 GMT 47.183304 -3.202652 31,975 253 468 0
2019-03-15 14:04:13 GMT 47.187256 -3.184556 31,975 253 468 0
2019-03-15 14:04:10 GMT 47.188232 -3.179979 31,975 253 468 0
2019-03-15 14:04:04 GMT 47.192703 -3.159696 31,975 253 468 0
2019-03-15 14:03:58 GMT 47.196350 -3.143120 31,975 253 468 0
2019-03-15 14:03:51 GMT 47.200836 -3.122520 31,975 253 468 0
2019-03-15 14:03:47 GMT 47.203995 -3.108376 31,975 252 468 0
2019-03-15 14:03:43 GMT 47.206787 -3.095947 31,975 252 469 0
2019-03-15 14:03:38 GMT 47.210068 -3.081524 31,975 251 469 0
2019-03-15 14:03:32 GMT 47.214020 -3.065048 32,000 250 469 0
2019-03-15 14:03:24 GMT 47.220078 -3.040818 32,000 250 469 0
2019-03-15 14:03:21 GMT 47.222900 -3.029823 32,000 250 469 0
2019-03-15 14:03:14 GMT 47.228550 -3.007437 32,000 250 469 0
2019-03-15 14:03:10 GMT 47.231094 -2.997276 31,975 250 469 0
2019-03-15 14:03:04 GMT 47.235626 -2.979355 31,975 250 469 0
2019-03-15 14:02:59 GMT 47.239441 -2.964125 31,975 240 474 0
2019-03-15 14:02:54 GMT 47.242538 -2.951889 32,000 250 468 0
2019-03-15 14:02:50 GMT 47.246201 -2.937263 31,975 250 469 64
2019-03-15 14:02:43 GMT 47.251236 -2.916939 31,975 251 469 0
2019-03-15 14:02:38 GMT 47.254715 -2.902863 31,975 251 469 0
2019-03-15 14:02:33 GMT 47.258743 -2.886383 31,975 251 468 0
2019-03-15 14:02:28 GMT 47.262112 -2.872643 32,000 251 469 0
2019-03-15 14:02:22 GMT 47.266350 -2.855248 31,975 251 469 -64
2019-03-15 14:02:16 GMT 47.271004 -2.835740 31,975 251 468 0
2019-03-15 14:02:13 GMT 47.273529 -2.824928 32,000 251 468 0
2019-03-15 14:02:05 GMT 47.279289 -2.800528 31,975 255 468 0
2019-03-15 14:02:01 GMT 47.285294 -2.774254 31,975 240 474 0
2019-03-15 14:01:55 GMT 47.285294 -2.774254 32,000 255 468 0
2019-03-15 14:01:51 GMT 47.288223 -2.761276 31,975 252 468 0
2019-03-15 14:01:42 GMT 47.295212 -2.729539 31,975 253 468 0
2019-03-15 14:01:34 GMT 47.300079 -2.706757 31,975 253 468 0
2019-03-15 14:01:29 GMT 47.302521 -2.694890 31,975 254 468 -64
2019-03-15 14:01:23 GMT 47.306122 -2.677231 31,975 255 468 64
2019-03-15 14:01:20 GMT 47.308014 -2.667776 31,975 254 468 0
2019-03-15 14:01:14 GMT 47.313400 -2.640289 31,975 255 468 0
2019-03-15 14:01:06 GMT 47.316299 -2.624958 31,975 255 468 0
2019-03-15 14:01:02 GMT 47.318893 -2.611176 31,975 255 468 64
2019-03-15 14:00:59 GMT 47.320396 -2.603196 31,975 255 468 64
2019-03-15 14:00:49 GMT 47.329880 -2.556244 31,975 251 468 128
2019-03-15 14:00:38 GMT 47.333771 -2.541000 31,975 247 471 -192
2019-03-15 14:00:33 GMT 47.338898 -2.524727 31,975 243 472 -128
2019-03-15 14:00:28 GMT 47.343861 -2.511503 32,000 240 474 0
2019-03-15 14:00:24 GMT 47.348785 -2.499321 31,975 239 474 64
2019-03-15 14:00:19 GMT 47.354599 -2.485245 31,975 239 474 0
2019-03-15 14:00:02 GMT 47.376984 -2.431206 31,975 239 474 0
2019-03-15 13:59:56 GMT 47.384720 -2.412460 32,000 239 474 0
2019-03-15 13:59:52 GMT 47.384720 -2.412460 32,000 239 473 0
2019-03-15 13:59:48 GMT 47.389297 -2.401474 31,975 239 473 64
2019-03-15 13:59:42 GMT 47.396790 -2.383259 31,975 239 473 0
2019-03-15 13:59:35 GMT 47.404655 -2.364244 31,975 239 474 0
2019-03-15 13:59:31 GMT 47.408611 -2.354525 31,975 239 473 0
2019-03-15 13:59:25 GMT 47.415344 -2.338303 31,975 239 474 0
2019-03-15 13:59:20 GMT 47.421478 -2.323402 32,000 239 474 0
2019-03-15 13:59:11 GMT 47.437523 -2.284452 31,975 239 474 0
2019-03-15 13:59:04 GMT 47.440502 -2.277269 32,000 239 474 0
2019-03-15 13:59:01 GMT 47.443222 -2.270599 32,000 239 474 0
2019-03-15 13:58:55 GMT 47.449493 -2.255424 31,975 239 474 0
2019-03-15 13:58:48 GMT 47.458099 -2.234413 32,000 239 474 0
2019-03-15 13:58:45 GMT 47.461395 -2.226448 31,975 239 474 0
2019-03-15 13:58:40 GMT 47.466522 -2.213956 31,975 239 474 0
2019-03-15 13:58:35 GMT 47.473087 -2.197899 32,000 239 474 0
2019-03-15 13:58:30 GMT 47.478745 -2.184082 31,975 239 474 0
2019-03-15 13:58:27 GMT 47.482166 -2.175786 32,000 239 474 0
2019-03-15 13:58:24 GMT 47.485107 -2.168564 31,975 239 474 0
2019-03-15 13:58:21 GMT 47.488495 -2.160292 31,975 239 474 0
2019-03-15 13:58:17 GMT 47.493805 -2.147278 31,975 239 474 0
2019-03-15 13:58:14 GMT 47.496552 -2.140644 31,975 239 474 0
2019-03-15 13:58:10 GMT 47.500946 -2.129906 32,000 239 474 0
2019-03-15 13:58:07 GMT 47.506046 -2.117403 32,000 239 474 0
2019-03-15 13:58:03 GMT 47.509415 -2.109100 32,000 239 474 0
2019-03-15 13:57:59 GMT 47.514954 -2.095573 32,000 239 473 0
2019-03-15 13:57:53 GMT 47.520493 -2.082047 32,000 239 474 0
2019-03-15 13:57:49 GMT 47.529182 -2.060711 32,000 239 472 0
2019-03-15 13:57:42 GMT 47.533138 -2.051063 31,975 239 473 64
2019-03-15 13:57:37 GMT 47.538216 -2.038598 31,975 239 472 64
2019-03-15 13:57:29 GMT 47.547318 -2.016197 31,975 239 473 0
2019-03-15 13:57:19 GMT 47.562057 -1.979942 32,000 239 473 0
2019-03-15 13:57:16 GMT 47.562057 -1.979942 31,975 240 473 0
2019-03-15 13:57:09 GMT 47.571407 -1.956975 31,975 239 472 64
2019-03-15 13:57:06 GMT 47.572861 -1.953369 32,000 239 472 0
2019-03-15 13:57:03 GMT 47.576714 -1.943946 32,000 239 472 0
2019-03-15 13:56:58 GMT 47.583229 -1.927889 32,000 240 472 0
2019-03-15 13:56:54 GMT 47.586365 -1.920135 31,975 240 472 0
2019-03-15 13:56:48 GMT 47.593239 -1.903311 31,975 240 472 0
2019-03-15 13:56:44 GMT 47.597855 -1.891914 31,975 240 472 0
2019-03-15 13:56:41 GMT 47.602570 -1.880310 32,000 240 473 0
2019-03-15 13:56:35 GMT 47.608521 -1.865616 31,975 240 473 0
2019-03-15 13:56:30 GMT 47.615479 -1.848450 32,000 240 473 0
2019-03-15 13:56:24 GMT 47.620193 -1.836759 31,975 240 473 0
2019-03-15 13:56:19 GMT 47.627472 -1.818787 32,000 240 473 0
2019-03-15 13:56:14 GMT 47.633377 -1.804024 32,000 240 473 0
2019-03-15 13:56:09 GMT 47.638000 -1.792694 32,000 240 473 0
2019-03-15 13:56:06 GMT 47.641792 -1.783236 32,000 240 473 0
2019-03-15 13:56:00 GMT 47.648544 -1.766616 32,000 240 473 0
2019-03-15 13:55:53 GMT 47.659531 -1.739432 32,000 240 473 0
2019-03-15 13:55:49 GMT 47.659531 -1.739432 32,000 240 472 0
2019-03-15 13:55:43 GMT 47.666794 -1.721352 32,000 240 472 0
2019-03-15 13:55:39 GMT 47.671120 -1.710557 32,000 240 472 0
2019-03-15 13:55:30 GMT 47.680435 -1.687500 32,000 240 470 0
2019-03-15 13:55:27 GMT 47.684418 -1.677544 32,000 240 472 0
2019-03-15 13:55:24 GMT 47.687553 -1.669781 32,000 240 472 0
2019-03-15 13:55:19 GMT 47.695934 -1.648935 32,000 240 472 0
2019-03-15 13:55:13 GMT 47.699249 -1.640671 32,000 240 471 0
2019-03-15 13:55:10 GMT 47.703381 -1.630343 32,000 240 471 0
2019-03-15 13:55:07 GMT 47.706482 -1.622612 32,000 240 471 0
2019-03-15 13:55:04 GMT 47.710144 -1.613480 32,000 240 471 0
2019-03-15 13:54:59 GMT 47.715591 -1.599884 32,000 240 470 0
2019-03-15 13:54:54 GMT 47.721268 -1.585739 32,000 240 470 0
2019-03-15 13:54:51 GMT 47.724144 -1.578510 32,000 240 470 0
2019-03-15 13:54:48 GMT 47.727493 -1.570221 32,000 240 470 0
2019-03-15 13:54:44 GMT 47.733501 -1.555270 31,975 240 470 0
2019-03-15 13:54:37 GMT 47.741135 -1.536114 31,975 240 469 0
2019-03-15 13:54:33 GMT 47.744705 -1.527306 31,975 240 470 0
2019-03-15 13:54:28 GMT 47.753658 -1.504845 31,975 240 470 0
2019-03-15 13:54:25 GMT 47.753658 -1.504845 31,975 240 470 0
2019-03-15 13:54:20 GMT 47.758987 -1.491531 31,975 240 470 0
2019-03-15 13:54:16 GMT 47.762505 -1.482661 31,975 240 470 0
2019-03-15 13:54:12 GMT 47.767044 -1.471275 31,975 240 470 0
2019-03-15 13:54:08 GMT 47.772556 -1.457379 31,975 240 470 0
2019-03-15 13:54:02 GMT 47.778332 -1.442942 31,975 240 470 0
2019-03-15 13:53:59 GMT 47.782059 -1.433510 31,975 240 469 0
2019-03-15 13:53:55 GMT 47.785950 -1.423828 32,000 240 470 0
2019-03-15 13:53:52 GMT 47.789597 -1.414701 32,000 240 470 0
2019-03-15 13:53:49 GMT 47.793915 -1.403847 32,000 240 469 0
2019-03-15 13:53:45 GMT 47.801048 -1.385827 32,000 240 469 0
2019-03-15 13:53:42 GMT 47.801048 -1.385827 32,000 240 469 0
2019-03-15 13:53:35 GMT 47.807785 -1.368965 32,000 240 469 0
2019-03-15 13:53:31 GMT 47.812641 -1.356741 32,000 240 468 0
2019-03-15 13:53:26 GMT 47.818691 -1.341529 32,000 240 468 0
2019-03-15 13:53:21 GMT 47.823627 -1.329064 32,000 240 468 0
2019-03-15 13:53:15 GMT 47.831215 -1.309979 32,000 240 467 0
2019-03-15 13:53:09 GMT 47.841293 -1.284508 32,000 240 466 0
2019-03-15 13:53:05 GMT 47.841293 -1.284508 31,975 240 466 0
2019-03-15 13:52:59 GMT 47.847740 -1.268217 32,000 240 467 0
2019-03-15 13:52:54 GMT 47.852875 -1.255188 32,000 240 466 0
2019-03-15 13:52:50 GMT 47.857700 -1.243075 32,000 240 466 0
2019-03-15 13:52:44 GMT 47.864136 -1.226761 32,000 240 466 0
2019-03-15 13:52:40 GMT 47.868641 -1.215468 31,975 240 466 0
2019-03-15 13:52:33 GMT 47.875813 -1.197228 32,000 240 466 0
2019-03-15 13:52:28 GMT 47.881908 -1.181735 31,975 240 466 0
2019-03-15 13:52:23 GMT 47.887264 -1.168213 32,000 240 466 0
2019-03-15 13:52:18 GMT 47.897644 -1.141944 32,000 240 466 0
2019-03-15 13:52:11 GMT 47.899925 -1.136169 32,000 240 466 0
2019-03-15 13:52:07 GMT 47.904488 -1.124549 32,000 240 466 0
2019-03-15 13:52:02 GMT 47.913757 -1.101105 32,000 240 466 0
2019-03-15 13:51:59 GMT 47.913757 -1.101105 32,000 240 465 128
2019-03-15 13:51:55 GMT 47.917648 -1.091148 32,000 240 466 64
2019-03-15 13:51:52 GMT 47.921677 -1.080917 32,000 240 466 64
2019-03-15 13:51:49 GMT 47.925613 -1.070961 32,000 240 465 64
2019-03-15 13:51:45 GMT 47.933121 -1.051872 31,975 240 465 64
2019-03-15 13:51:41 GMT 47.933121 -1.051872 31,975 240 465 0
2019-03-15 13:51:38 GMT 47.936375 -1.043631 31,975 240 465 0
2019-03-15 13:51:32 GMT 47.943127 -1.026447 31,975 240 465 0
2019-03-15 13:51:28 GMT 47.947456 -1.015390 31,975 240 465 0
2019-03-15 13:51:22 GMT 47.953857 -0.999069 31,975 240 466 0
2019-03-15 13:51:19 GMT 47.956558 -0.992134 31,975 240 466 0
2019-03-15 13:51:16 GMT 47.959396 -0.984924 31,975 240 466 0
2019-03-15 13:51:12 GMT 47.965984 -0.968065 31,975 240 466 0
2019-03-15 13:51:09 GMT 47.967407 -0.964462 31,975 240 466 0
2019-03-15 13:51:06 GMT 47.970428 -0.956703 31,975 240 466 0
2019-03-15 13:51:02 GMT 47.975433 -0.943909 31,975 240 467 0
2019-03-15 13:50:56 GMT 47.981716 -0.927852 31,975 240 467 0
2019-03-15 13:50:49 GMT 47.989105 -0.908981 31,975 240 467 0
2019-03-15 13:50:46 GMT 47.993217 -0.898344 31,975 240 467 0
2019-03-15 13:50:42 GMT 47.996567 -0.889752 31,975 240 467 0
2019-03-15 13:50:39 GMT 48.004387 -0.869681 32,000 240 468 -64
2019-03-15 13:50:35 GMT 48.004387 -0.869681 32,000 240 468 -64
2019-03-15 13:50:28 GMT 48.011929 -0.850525 32,000 240 468 -64
2019-03-15 13:50:25 GMT 48.015934 -0.840172 32,000 240 468 256
2019-03-15 13:50:19 GMT 48.023010 -0.822073 31,975 240 466 704
2019-03-15 13:50:14 GMT 48.027290 -0.810946 31,950 240 466 832
2019-03-15 13:50:09 GMT 48.033142 -0.795891 31,850 240 466 1088
2019-03-15 13:50:04 GMT 48.037579 -0.784537 31,750 240 466 1088
2019-03-15 13:50:01 GMT 48.041382 -0.774811 31,725 240 466 1088
2019-03-15 13:49:58 GMT 48.045353 -0.764536 31,550 240 466 1088
2019-03-15 13:49:54 GMT 48.049171 -0.754747 31,575 240 466 1088
2019-03-15 13:49:51 GMT 48.052185 -0.747002 31,525 240 466 1216
2019-03-15 13:49:48 GMT 48.055874 -0.737492 31,375 240 466 1216
2019-03-15 13:49:43 GMT 48.060837 -0.724754 31,375 240 466 1024
2019-03-15 13:49:37 GMT 48.068398 -0.705238 31,250 240 466 1024
2019-03-15 13:49:33 GMT 48.071751 -0.696575 31,200 240 466 1088
2019-03-15 13:49:30 GMT 48.075027 -0.688225 31,150 240 466 1088
2019-03-15 13:49:26 GMT 48.079014 -0.677983 31,075 240 466 1088
2019-03-15 13:49:22 GMT 48.083992 -0.665166 31,000 240 466 1152
2019-03-15 13:49:16 GMT 48.089813 -0.650095 30,800 240 466 1152
2019-03-15 13:49:11 GMT 48.095490 -0.635306 30,800 240 466 1152
2019-03-15 13:49:07 GMT 48.099819 -0.624178 30,650 240 466 1216
2019-03-15 13:49:04 GMT 48.107162 -0.605209 30,425 240 467 1408
2019-03-15 13:49:00 GMT 48.107162 -0.605209 30,575 240 467 1344
2019-03-15 13:48:54 GMT 48.113739 -0.588191 30,425 241 468 1472
2019-03-15 13:48:51 GMT 48.117004 -0.579803 30,125 241 468 1472
2019-03-15 13:48:45 GMT 48.123688 -0.562431 30,100 241 468 1472
2019-03-15 13:48:39 GMT 48.129894 -0.546429 30,075 240 469 1408
2019-03-15 13:48:34 GMT 48.136276 -0.529884 29,850 240 469 1472
2019-03-15 13:48:29 GMT 48.140488 -0.518898 29,775 241 471 1408
2019-03-15 13:48:25 GMT 48.145065 -0.507088 29,425 241 470 1472
2019-03-15 13:48:22 GMT 48.149368 -0.495827 29,700 241 470 1472
2019-03-15 13:48:18 GMT 48.152843 -0.486849 29,575 241 471 1408
2019-03-15 13:48:15 GMT 48.156097 -0.478386 29,450 241 471 1408
2019-03-15 13:48:11 GMT 48.160446 -0.467130 29,350 241 471 1408
2019-03-15 13:48:08 GMT 48.163223 -0.459763 29,325 241 471 1408
2019-03-15 13:48:05 GMT 48.166946 -0.450158 29,225 241 471 1408
2019-03-15 13:48:02 GMT 48.171604 -0.438008 29,150 241 471 1408
2019-03-15 13:47:58 GMT 48.174637 -0.430087 29,050 241 471 1472
2019-03-15 13:47:53 GMT 48.181183 -0.413185 28,950 241 471 1472
2019-03-15 13:47:50 GMT 48.183430 -0.407217 28,900 241 472 1472
2019-03-15 13:47:46 GMT 48.188782 -0.393339 28,775 241 472 1472
2019-03-15 13:47:41 GMT 48.193954 -0.379733 28,550 241 473 1536
2019-03-15 13:47:36 GMT 48.197765 -0.369849 28,475 241 473 1536
2019-03-15 13:47:33 GMT 48.202011 -0.358746 28,475 241 473 1536
2019-03-15 13:47:30 GMT 48.206177 -0.347971 28,375 241 474 1664
2019-03-15 13:47:25 GMT 48.210297 -0.337125 27,950 241 476 1216
2019-03-15 13:47:22 GMT 48.213135 -0.329731 28,200 241 475 1792
2019-03-15 13:47:19 GMT 48.218033 -0.316913 28,025 241 476 1472
2019-03-15 13:47:15 GMT 48.220901 -0.309496 27,975 241 476 1280
2019-03-15 13:47:12 GMT 48.224258 -0.300575 27,975 241 476 1216
2019-03-15 13:47:07 GMT 48.229935 -0.285717 27,850 241 476 1088
2019-03-15 13:47:03 GMT 48.234497 -0.273719 27,725 241 476 960
2019-03-15 13:46:58 GMT 48.244537 -0.247404 27,625 241 475 1024
2019-03-15 13:46:54 GMT 48.244537 -0.247404 27,575 241 475 1024
2019-03-15 13:46:50 GMT 48.248508 -0.236784 27,575 241 475 1024
2019-03-15 13:46:47 GMT 48.251999 -0.227685 27,500 241 474 1152
2019-03-15 13:46:44 GMT 48.255352 -0.218787 27,500 241 474 1216
2019-03-15 13:46:41 GMT 48.258591 -0.210290 27,300 241 473 1152
2019-03-15 13:46:36 GMT 48.263901 -0.196275 27,300 241 473 1088
2019-03-15 13:46:31 GMT 48.269085 -0.182648 27,125 241 471 1216
2019-03-15 13:46:27 GMT 48.273506 -0.170939 27,150 241 472 1024
2019-03-15 13:46:23 GMT 48.277790 -0.159591 27,075 241 471 1152
2019-03-15 13:46:20 GMT 48.280910 -0.151351 27,025 241 471 1216
2019-03-15 13:46:15 GMT 48.286587 -0.136317 26,925 241 471 1280
2019-03-15 13:46:10 GMT 48.291523 -0.123235 26,825 241 470 1152
2019-03-15 13:46:05 GMT 48.297108 -0.108562 26,725 241 470 1024
2019-03-15 13:46:00 GMT 48.302044 -0.095552 26,650 241 469 1088
2019-03-15 13:45:55 GMT 48.307163 -0.081964 26,550 241 468 1152
2019-03-15 13:45:52 GMT 48.311646 -0.070143 26,475 241 467 1216
2019-03-15 13:45:49 GMT 48.313683 -0.064762 26,450 241 467 1216
2019-03-15 13:45:44 GMT 48.318878 -0.050917 26,300 241 467 1216
2019-03-15 13:45:40 GMT 48.324005 -0.037466 26,250 241 467 1216
2019-03-15 13:45:37 GMT 48.328159 -0.026454 26,175 241 465 1344
2019-03-15 13:45:34 GMT 48.329727 -0.022254 26,100 241 465 1280
2019-03-15 13:45:31 GMT 48.334396 -0.009902 26,050 241 465 1344
2019-03-15 13:45:24 GMT 48.340729 0.006939 25,925 241 465 1344
2019-03-15 13:45:19 GMT 48.345711 0.020166 25,700 241 464 1344
2019-03-15 13:45:14 GMT 48.352707 0.038663 25,675 241 464 1280
2019-03-15 13:45:10 GMT 48.358513 0.053992 25,550 241 463 1216
2019-03-15 13:45:04 GMT 48.361908 0.062960 25,450 241 463 1216
2019-03-15 13:45:00 GMT 48.367077 0.076687 25,300 241 459 1280
2019-03-15 13:44:57 GMT 48.369080 0.081964 25,250 241 462 1152
2019-03-15 13:44:53 GMT 48.374012 0.095118 25,225 241 460 1152
2019-03-15 13:44:49 GMT 48.377701 0.104863 25,125 241 460 1152
2019-03-15 13:44:45 GMT 48.381500 0.114863 25,125 241 459 1216
2019-03-15 13:44:41 GMT 48.385883 0.126487 25,025 241 459 1344
2019-03-15 13:44:36 GMT 48.391331 0.140943 24,925 241 459 1408
2019-03-15 13:44:33 GMT 48.397659 0.157541 24,775 241 459 1344
2019-03-15 13:44:26 GMT 48.401093 0.166696 24,725 241 457 1280
2019-03-15 13:44:22 GMT 48.405716 0.178810 24,625 241 458 1280
2019-03-15 13:44:16 GMT 48.412720 0.197331 24,450 241 456 1216
2019-03-15 13:44:12 GMT 48.415878 0.205571 24,425 241 456 1216
2019-03-15 13:44:07 GMT 48.421963 0.221534 24,300 241 455 1216
2019-03-15 13:44:03 GMT 48.425995 0.232262 24,200 241 455 1280
2019-03-15 13:44:00 GMT 48.429016 0.240220 24,175 241 455 1280
2019-03-15 13:43:57 GMT 48.432678 0.249869 24,100 241 455 1216
2019-03-15 13:43:54 GMT 48.435196 0.256418 24,050 241 453 1152
2019-03-15 13:43:51 GMT 48.437897 0.263531 24,000 241 453 1152
2019-03-15 13:43:48 GMT 48.441002 0.271767 23,950 241 453 1152
2019-03-15 13:43:45 GMT 48.444214 0.280224 23,875 241 452 1216
2019-03-15 13:43:41 GMT 48.447922 0.290011 23,800 241 450 1408
2019-03-15 13:43:37 GMT 48.456364 0.312388 23,650 241 450 1344
2019-03-15 13:43:34 GMT 48.456364 0.312388 23,625 241 450 1152
2019-03-15 13:43:31 GMT 48.458542 0.318111 23,575 241 449 1088
2019-03-15 13:43:28 GMT 48.461380 0.325716 23,525 241 448 960
2019-03-15 13:43:25 GMT 48.464745 0.334649 23,450 241 446 896
2019-03-15 13:43:21 GMT 48.468979 0.346069 23,400 242 445 960
2019-03-15 13:43:14 GMT 48.478756 0.373174 23,275 243 441 1216
2019-03-15 13:43:11 GMT 48.478756 0.373174 23,250 243 441 1216
2019-03-15 13:43:07 GMT 48.482529 0.384029 23,175 243 441 1280
2019-03-15 13:43:04 GMT 48.484955 0.391141 23,125 243 440 1408
2019-03-15 13:43:01 GMT 48.488438 0.401146 23,025 243 439 1600
2019-03-15 13:42:57 GMT 48.492691 0.413325 22,900 243 438 1728
2019-03-15 13:42:53 GMT 48.498322 0.429523 22,725 243 438 1728
2019-03-15 13:42:43 GMT 48.505051 0.449031 22,550 243 438 1536
2019-03-15 13:42:38 GMT 48.509338 0.461426 22,425 243 437 1472
2019-03-15 13:42:34 GMT 48.513885 0.474666 21,975 243 434 1536
2019-03-15 13:42:29 GMT 48.518276 0.487301 22,225 243 435 1600
2019-03-15 13:42:22 GMT 48.525822 0.509346 22,050 243 434 1600
2019-03-15 13:42:19 GMT 48.527573 0.514386 21,925 243 433 1472
2019-03-15 13:42:14 GMT 48.535873 0.538475 21,750 243 432 1472
2019-03-15 13:42:10 GMT 48.535873 0.538475 21,600 243 431 1472
2019-03-15 13:42:02 GMT 48.543697 0.561098 21,500 243 429 1472
2019-03-15 13:41:59 GMT 48.545559 0.566446 21,325 243 428 1600
2019-03-15 13:41:55 GMT 48.549747 0.578661 21,250 243 427 1792
2019-03-15 13:41:51 GMT 48.553116 0.588402 21,125 243 425 0
2019-03-15 13:41:48 GMT 48.558563 0.604318 20,875 243 427 1792
2019-03-15 13:41:42 GMT 48.561493 0.612769 21,000 243 427 1792
2019-03-15 13:41:39 GMT 48.563644 0.619108 20,900 243 427 1728
2019-03-15 13:41:36 GMT 48.567020 0.628823 20,550 243 425 1600
2019-03-15 13:41:32 GMT 48.569904 0.637279 20,725 243 425 1600
2019-03-15 13:41:29 GMT 48.572838 0.645664 20,625 243 424 1536
2019-03-15 13:41:25 GMT 48.576508 0.656433 20,525 243 423 1408
2019-03-15 13:41:19 GMT 48.582382 0.673419 20,375 243 422 1600
2019-03-15 13:41:14 GMT 48.587631 0.688829 20,250 243 419 1792
2019-03-15 13:41:10 GMT 48.590061 0.695825 20,125 243 419 1792
2019-03-15 13:40:58 GMT 48.600952 0.727774 19,850 243 418 1472
2019-03-15 13:40:51 GMT 48.607937 0.747865 19,575 243 415 2240
2019-03-15 13:40:47 GMT 48.610779 0.756033 19,575 243 415 2240
2019-03-15 13:40:43 GMT 48.614826 0.767887 19,300 243 413 1600
2019-03-15 13:40:38 GMT 48.618805 0.779466 19,175 243 414 1664
2019-03-15 13:40:34 GMT 48.626373 0.801424 18,650 243 411 2048
2019-03-15 13:40:29 GMT 48.626373 0.801424 18,925 243 411 1984
2019-03-15 13:40:26 GMT 48.628738 0.808340 18,525 243 411 2048
2019-03-15 13:40:22 GMT 48.632332 0.818771 18,700 243 410 1664
2019-03-15 13:40:19 GMT 48.635033 0.826649 18,575 243 410 1664
2019-03-15 13:40:16 GMT 48.637733 0.834527 18,525 243 408 1984
2019-03-15 13:40:08 GMT 48.644302 0.853483 18,300 243 407 2240
2019-03-15 13:39:58 GMT 48.653374 0.879990 17,925 243 407 1792
2019-03-15 13:39:47 GMT 48.662544 0.906950 17,625 243 403 2048
2019-03-15 13:39:43 GMT 48.665863 0.916725 17,250 244 402 1984
2019-03-15 13:39:38 GMT 48.670486 0.930246 17,250 244 401 1856
2019-03-15 13:39:35 GMT 48.673019 0.938030 16,950 273 376 1984
2019-03-15 13:39:28 GMT 48.679024 0.956316 16,975 244 399 1856
2019-03-15 13:39:24 GMT 48.682388 0.966515 16,875 244 398 2240
2019-03-15 13:39:17 GMT 48.687378 0.981445 16,650 243 398 2560
2019-03-15 13:39:13 GMT 48.690987 0.992022 16,475 243 398 2112
2019-03-15 13:39:06 GMT 48.697449 1.011658 16,225 247 394 1728
2019-03-15 13:39:03 GMT 48.699280 1.017996 16,150 249 392 1920
2019-03-15 13:38:55 GMT 48.704178 1.038208 15,900 256 386 1984
2019-03-15 13:38:47 GMT 48.707840 1.060392 15,625 256 386 1984
2019-03-15 13:38:44 GMT 48.708443 1.065674 15,550 263 380 2176
2019-03-15 13:38:34 GMT 48.710445 1.094441 15,100 274 374 1984
2019-03-15 13:38:22 GMT 48.709854 1.125887 14,725 280 370 2240
2019-03-15 13:38:14 GMT 48.707474 1.148423 14,400 282 369 2368
2019-03-15 13:38:02 GMT 48.703648 1.176477 14,025 282 368 2368
2019-03-15 13:37:54 GMT 48.700882 1.196594 13,650 282 366 2368
2019-03-15 13:37:50 GMT 48.699554 1.206328 13,525 282 366 2368
2019-03-15 13:37:44 GMT 48.697456 1.221362 13,200 282 364 2368
2019-03-15 13:37:40 GMT 48.696213 1.230328 13,125 282 362 2432
2019-03-15 13:37:33 GMT 48.693501 1.250273 12,800 282 363 2368
2019-03-15 13:37:27 GMT 48.691910 1.261878 12,625 282 362 2432
2019-03-15 13:37:19 GMT 48.689163 1.281950 12,300 282 360 2112
2019-03-15 13:37:12 GMT 48.686462 1.301598 12,075 282 359 832
2019-03-15 13:37:07 GMT 48.684814 1.313923 12,025 282 358 640
2019-03-15 13:37:01 GMT 48.682800 1.328641 12,000 282 358 64
2019-03-15 13:36:49 GMT 48.678650 1.358474 11,975 282 358 0
2019-03-15 13:36:39 GMT 48.674652 1.387939 12,000 282 359 0
2019-03-15 13:36:33 GMT 48.673279 1.398081 12,000 282 360 0
2019-03-15 13:36:29 GMT 48.672180 1.406180 12,000 282 360 0
2019-03-15 13:36:19 GMT 48.667759 1.438197 12,000 282 359 0
2019-03-15 13:36:05 GMT 48.664215 1.463435 12,000 282 358 0
2019-03-15 13:35:58 GMT 48.661514 1.483013 12,000 282 357 0
2019-03-15 13:35:55 GMT 48.660828 1.487943 12,000 283 358 -64
2019-03-15 13:35:49 GMT 48.656891 1.515761 12,000 282 357 0
2019-03-15 13:35:45 GMT 48.656891 1.515761 12,000 283 357 0
2019-03-15 13:35:41 GMT 48.655975 1.522311 12,000 283 357 0
2019-03-15 13:35:38 GMT 48.654724 1.531075 12,000 283 357 0
2019-03-15 13:35:34 GMT 48.653137 1.542311 12,000 283 357 0
2019-03-15 13:35:30 GMT 48.652039 1.549917 12,000 283 357 0
2019-03-15 13:35:27 GMT 48.650986 1.557453 12,000 283 357 0
2019-03-15 13:35:24 GMT 48.650112 1.563600 12,000 283 357 -128
2019-03-15 13:35:21 GMT 48.648811 1.572852 12,000 283 357 0
2019-03-15 13:35:18 GMT 48.646500 1.588933 12,000 283 357 -128
2019-03-15 13:35:14 GMT 48.646500 1.588933 12,025 283 357 -128
2019-03-15 13:35:11 GMT 48.645309 1.596961 12,025 283 357 -128
2019-03-15 13:35:04 GMT 48.641693 1.620272 12,025 283 357 0
2019-03-15 13:34:58 GMT 48.640457 1.628794 12,000 283 357 0
2019-03-15 13:34:54 GMT 48.639038 1.639076 12,025 280 357 64
2019-03-15 13:34:50 GMT 48.638012 1.647660 12,025 280 356 128
2019-03-15 13:34:42 GMT 48.636063 1.667034 11,975 274 347 1088
2019-03-15 13:34:39 GMT 48.635239 1.677317 11,925 276 349 1216
2019-03-15 13:34:35 GMT 48.634892 1.683366 11,875 275 348 1152
2019-03-15 13:34:31 GMT 48.634518 1.693774 11,775 273 346 1024
2019-03-15 13:34:27 GMT 48.634472 1.702881 11,725 269 342 1088
2019-03-15 13:34:23 GMT 48.634659 1.713867 11,575 268 337 1088
2019-03-15 13:34:19 GMT 48.634918 1.723022 11,600 268 335 1024
2019-03-15 13:34:14 GMT 48.635239 1.734431 11,450 268 323 1088
2019-03-15 13:34:11 GMT 48.635777 1.753837 11,325 268 319 1088
2019-03-15 13:34:06 GMT 48.635777 1.753837 11,350 268 323 1088
2019-03-15 13:34:00 GMT 48.636108 1.765700 11,250 268 319 1088
2019-03-15 13:33:54 GMT 48.636475 1.779641 11,125 268 311 1088
2019-03-15 13:33:50 GMT 48.636749 1.788095 11,075 268 309 1088
2019-03-15 13:33:47 GMT 48.636978 1.796687 11,000 268 305 1088
2019-03-15 13:33:44 GMT 48.637081 1.800674 10,950 268 302 1024
2019-03-15 13:33:40 GMT 48.637390 1.809716 10,875 268 298 960
2019-03-15 13:33:33 GMT 48.637825 1.823803 10,775 268 292 1024
2019-03-15 13:33:29 GMT 48.638615 1.848305 10,650 268 279 1088
2019-03-15 13:33:22 GMT 48.638615 1.848305 10,525 268 281 1088
2019-03-15 13:33:11 GMT 48.639267 1.867465 10,300 268 271 1984
2019-03-15 13:33:08 GMT 48.639500 1.875265 10,225 268 271 1984
2019-03-15 13:33:02 GMT 48.639828 1.885384 10,050 267 268 2496
2019-03-15 13:32:58 GMT 48.640106 1.892323 9,875 267 268 2688
2019-03-15 13:32:50 GMT 48.640663 1.907646 9,525 267 268 2496
2019-03-15 13:32:47 GMT 48.640850 1.911621 9,450 267 267 2368
2019-03-15 13:32:42 GMT 48.641270 1.922752 9,200 267 267 2560
2019-03-15 13:32:39 GMT 48.641411 1.926294 9,125 267 266 2816
2019-03-15 13:32:36 GMT 48.641594 1.932220 8,975 267 266 2752
2019-03-15 13:32:29 GMT 48.642105 1.945447 8,650 267 266 2816
2019-03-15 13:32:26 GMT 48.642380 1.952679 8,550 267 266 2752
2019-03-15 13:32:19 GMT 48.642807 1.965613 8,175 268 264 2624
2019-03-15 13:32:15 GMT 48.643021 1.972257 8,000 268 263 2752
2019-03-15 13:32:11 GMT 48.643272 1.979418 7,825 267 263 2752
2019-03-15 13:32:08 GMT 48.643456 1.985490 7,525 268 262 2624
2019-03-15 13:32:04 GMT 48.643688 1.992067 7,525 268 262 2560
2019-03-15 13:32:00 GMT 48.644108 2.005945 7,200 267 259 2304
2019-03-15 13:31:57 GMT 48.644108 2.005945 7,225 267 260 2368
2019-03-15 13:31:53 GMT 48.644348 2.012047 7,175 267 259 2304
2019-03-15 13:31:48 GMT 48.644714 2.021051 6,900 267 258 2304
2019-03-15 13:31:44 GMT 48.644993 2.028206 6,325 266 255 2560
2019-03-15 13:31:38 GMT 48.645599 2.040855 6,425 266 254 2624
2019-03-15 13:31:33 GMT 48.645924 2.047216 6,150 266 253 2624
2019-03-15 13:31:26 GMT 48.646576 2.062033 5,900 267 250 2624
2019-03-15 13:31:23 GMT 48.646763 2.065863 5,850 267 250 2624
2019-03-15 13:31:12 GMT 48.647274 2.085306 5,325 268 247 2688
2019-03-15 13:31:07 GMT 48.647415 2.091487 5,150 269 245 1984
2019-03-15 13:31:03 GMT 48.647598 2.100783 4,950 269 244 1728
2019-03-15 13:31:00 GMT 48.647694 2.105038 4,875 269 244 1664
2019-03-15 13:30:54 GMT 48.647785 2.114796 4,725 270 239 1280
2019-03-15 13:30:50 GMT 48.647873 2.122474 4,650 270 236 1024
2019-03-15 13:30:42 GMT 48.647964 2.134658 4,500 270 224 1216
2019-03-15 13:30:39 GMT 48.647964 2.140644 4,450 269 223 1344
2019-03-15 13:30:33 GMT 48.648148 2.148813 4,300 233 188 448
2019-03-15 13:30:30 GMT 48.648468 2.154306 4,275 261 216 832
2019-03-15 13:30:27 GMT 48.648743 2.157264 4,250 259 215 832
2019-03-15 13:30:19 GMT 48.651417 2.169728 4,150 242 212 768
2019-03-15 13:30:13 GMT 48.654465 2.176913 4,050 234 210 1088
2019-03-15 13:30:08 GMT 48.657852 2.183674 3,950 233 206 576
2019-03-15 13:30:05 GMT 48.658676 2.185293 3,925 232 177 896
2019-03-15 13:30:02 GMT 48.660461 2.188744 3,925 233 200 640
2019-03-15 13:29:59 GMT 48.662170 2.192062 3,875 233 196 960
2019-03-15 13:29:55 GMT 48.664825 2.197193 3,825 232 193 768
2019-03-15 13:29:50 GMT 48.667557 2.202477 3,775 233 186 384
2019-03-15 13:29:44 GMT 48.670830 2.208975 3,700 232 177 832
2019-03-15 13:29:39 GMT 48.673111 2.213167 3,650 231 174 960
2019-03-15 13:29:33 GMT 48.676071 2.218675 3,550 231 170 832
2019-03-15 13:29:28 GMT 48.678314 2.222830 3,500 231 165 640
2019-03-15 13:29:23 GMT 48.680981 2.227767 3,425 231 161 1280
2019-03-15 13:29:18 GMT 48.683441 2.232267 3,275 231 159 1792
2019-03-15 13:29:11 GMT 48.686192 2.237452 3,125 232 160 1792
2019-03-15 13:29:06 GMT 48.688477 2.241845 2,950 233 160 1408
2019-03-15 13:29:02 GMT 48.691086 2.246986 2,825 234 160 1408
2019-03-15 13:28:59 GMT 48.691780 2.248294 2,775 234 160 1472
2019-03-15 13:28:55 GMT 48.693546 2.251836 2,700 234 160 1408
2019-03-15 13:28:50 GMT 48.695984 2.256916 2,575 235 159 1408
2019-03-15 13:28:44 GMT 48.698410 2.261986 2,425 235 160 1600
2019-03-15 13:28:39 GMT 48.700516 2.266494 2,350 235 160 1664
2019-03-15 13:28:35 GMT 48.702438 2.270437 2,150 234 161 1792
2019-03-15 13:28:29 GMT 48.705139 2.276142 1,975 236 163 1664
2019-03-15 13:28:19 GMT 48.709213 2.285649 1,450 246 161 1920
2019-03-15 13:28:07 GMT 48.712727 2.296938 1,325 243 161 2304
2019-03-15 13:27:58 GMT 48.716404 2.307346 975 243 165 1792
2019-03-15 13:27:45 GMT 48.720501 2.318693 625 241 94
2019-03-15 13:27:09 GMT 48.732193 2.351444 0 241 94
2019-03-15 13:27:04 GMT 48.733086 2.353962 0 241 76
2019-03-15 13:26:53 GMT 48.734562 2.358117 0 241 30
2019-03-15 13:26:42 GMT 48.734932 2.359206 0 241 10
2019-03-15 13:26:33 GMT 48.735123 2.359789 0 247 10
2019-03-15 13:26:23 GMT 48.735165 2.360380 0 300 11
2019-03-15 13:26:05 GMT 48.734276 2.360987 0 5 14
2019-03-15 13:25:58 GMT 48.733932 2.360899 0 22 13
2019-03-15 13:25:51 GMT 48.733578 2.360617 0 39 12
2019-03-15 13:25:36 GMT 48.733074 2.359613 0 61 16
2019-03-15 13:25:29 GMT 48.732903 2.359120 0 61 17
2019-03-15 13:25:16 GMT 48.732456 2.357870 0 61 13
2019-03-15 13:25:08 GMT 48.732262 2.357324 0 61 11
2019-03-15 13:24:54 GMT 48.731964 2.356550 0 56 11
2019-03-15 13:24:47 GMT 48.731731 2.356116 0 28 12
2019-03-15 13:24:37 GMT 48.731209 2.355845 0 36 13
2019-03-15 13:24:26 GMT 48.730843 2.355176 0 56 13
2019-03-15 13:24:17 GMT 48.730534 2.354489 0 50 11
2019-03-15 13:23:58 GMT 48.729824 2.353733 0 19 12
2019-03-15 13:23:55 GMT 48.729687 2.353662 0 16 13
2019-03-15 13:23:42 GMT 48.728897 2.353275 0 19 17
2019-03-15 13:23:32 GMT 48.728310 2.352972 0 19 15
2019-03-15 13:23:15 GMT 48.727276 2.352538 0 0 13
2019-03-15 13:23:12 GMT 48.727032 2.352571 0 345 14
2019-03-15 13:22:41 GMT 48.725204 2.353315 0 343 14

Making use of Plane Finder data

You are free to use the raw flight data, aircraft information and images provided in this report for your own purposes provided the data is correctly attributed to Plane Finder. We ask that you please credit Plane Finder and link to planefinder.net in close proximity to the content.

Optionally one of the following logos (no smaller then 150x24px) can be used and must link to planefinder.net

Embedding the Plane Finder map

You are welcome to embed the Plane Finder playback map on your website to offer visitors a more interactive experience. We suggest using the following HTML code:

<iframe src="//planefinder.net/data/report/SS924-F-GTUI-7700-squawk-2019-03-15/map" width="800" height="600" seamless="seamless"></iframe>

Where our data comes from

Plane Finder has a global network of data feeds and antenna radars that receive data broadcast directly from aircraft. The primary technologies used are ADS-B and MLAT. We also show feeds from the FAA and a FLARM glider feed.

Click here to find out more about the Plane Finder network.

How we collect our data